<?xml version="1.0" encoding="UTF-8" standalone="no" ?>
<gpx xmlns="http://www.topografix.com/GPX/1/1" xmlns:xsi="http://www.w3.org/2001/XMLSchema-instance" xsi:schemaLocation="http://www.topografix.com/GPX/1/1 http://www.topografix.com/GPX/1/1/gpx.xsd" version="1.1" creator="VisuGPX - https://www.visugpx.com">
  <metadata>
    <name>Salse le Chateau</name>
  </metadata>
  <trk>
    <name><![CDATA[Salse le Chateau_1]]></name>
    <trkseg>
      <trkpt lat="42.78808" lon="3.03492">
        <ele>-46.8</ele>
        <time>2020-07-14T05:24:52Z</time>
      </trkpt>
      <trkpt lat="42.78808" lon="3.03493">
        <ele>-46.8</ele>
        <time>2020-07-14T05:24:53Z</time>
      </trkpt>
      <trkpt lat="42.78809" lon="3.03522">
        <ele>-46.2</ele>
        <time>2020-07-14T05:25:05Z</time>
      </trkpt>
      <trkpt lat="42.78818" lon="3.03521">
        <ele>-45</ele>
        <time>2020-07-14T05:25:13Z</time>
      </trkpt>
      <trkpt lat="42.78832" lon="3.03515">
        <ele>-29.8</ele>
        <time>2020-07-14T05:27:23Z</time>
      </trkpt>
      <trkpt lat="42.78865" lon="3.03456">
        <ele>-16.4</ele>
        <time>2020-07-14T05:27:41Z</time>
      </trkpt>
      <trkpt lat="42.78879" lon="3.03387">
        <ele>-7.4</ele>
        <time>2020-07-14T05:27:59Z</time>
      </trkpt>
      <trkpt lat="42.78898" lon="3.0332">
        <ele>-3.4</ele>
        <time>2020-07-14T05:28:17Z</time>
      </trkpt>
      <trkpt lat="42.78937" lon="3.03286">
        <ele>-1.6</ele>
        <time>2020-07-14T05:28:35Z</time>
      </trkpt>
      <trkpt lat="42.78983" lon="3.03295">
        <ele>-0.80000000000001</ele>
        <time>2020-07-14T05:28:48Z</time>
      </trkpt>
      <trkpt lat="42.78991" lon="3.0328">
        <ele>-0.60000000000002</ele>
        <time>2020-07-14T05:28:52Z</time>
      </trkpt>
      <trkpt lat="42.78996" lon="3.03205">
        <ele>2</ele>
        <time>2020-07-14T05:29:10Z</time>
      </trkpt>
      <trkpt lat="42.79001" lon="3.03184">
        <ele>2</ele>
        <time>2020-07-14T05:29:15Z</time>
      </trkpt>
      <trkpt lat="42.79014" lon="3.03183">
        <ele>0.19999999999999</ele>
        <time>2020-07-14T05:29:19Z</time>
      </trkpt>
      <trkpt lat="42.79047" lon="3.03175">
        <ele>0.19999999999999</ele>
        <time>2020-07-14T05:29:27Z</time>
      </trkpt>
      <trkpt lat="42.7906" lon="3.03156">
        <ele>0.39999999999998</ele>
        <time>2020-07-14T05:29:31Z</time>
      </trkpt>
      <trkpt lat="42.79066" lon="3.0313">
        <ele>0.39999999999998</ele>
        <time>2020-07-14T05:29:36Z</time>
      </trkpt>
      <trkpt lat="42.79072" lon="3.03054">
        <ele>0.39999999999998</ele>
        <time>2020-07-14T05:29:49Z</time>
      </trkpt>
      <trkpt lat="42.7908" lon="3.03035">
        <ele>0.39999999999998</ele>
        <time>2020-07-14T05:29:54Z</time>
      </trkpt>
      <trkpt lat="42.79135" lon="3.03042">
        <ele>0.60000000000002</ele>
        <time>2020-07-14T05:30:07Z</time>
      </trkpt>
      <trkpt lat="42.79176" lon="3.03048">
        <ele>0.80000000000001</ele>
        <time>2020-07-14T05:30:18Z</time>
      </trkpt>
      <trkpt lat="42.79205" lon="3.02984">
        <ele>1</ele>
        <time>2020-07-14T05:30:36Z</time>
      </trkpt>
      <trkpt lat="42.79226" lon="3.02913">
        <ele>1</ele>
        <time>2020-07-14T05:30:48Z</time>
      </trkpt>
      <trkpt lat="42.7924" lon="3.02841">
        <ele>0.80000000000001</ele>
        <time>2020-07-14T05:31:02Z</time>
      </trkpt>
      <trkpt lat="42.79241" lon="3.02836">
        <ele>0.80000000000001</ele>
        <time>2020-07-14T05:31:03Z</time>
      </trkpt>
      <trkpt lat="42.79244" lon="3.02813">
        <ele>0.80000000000001</ele>
        <time>2020-07-14T05:31:07Z</time>
      </trkpt>
      <trkpt lat="42.79248" lon="3.02735">
        <ele>1</ele>
        <time>2020-07-14T05:31:24Z</time>
      </trkpt>
      <trkpt lat="42.79262" lon="3.02662">
        <ele>1</ele>
        <time>2020-07-14T05:31:38Z</time>
      </trkpt>
      <trkpt lat="42.79277" lon="3.02589">
        <ele>1.2</ele>
        <time>2020-07-14T05:31:51Z</time>
      </trkpt>
      <trkpt lat="42.79294" lon="3.02516">
        <ele>1.6</ele>
        <time>2020-07-14T05:32:04Z</time>
      </trkpt>
      <trkpt lat="42.7931" lon="3.02458">
        <ele>1.8</ele>
        <time>2020-07-14T05:32:14Z</time>
      </trkpt>
      <trkpt lat="42.79315" lon="3.02449">
        <ele>1.8</ele>
        <time>2020-07-14T05:32:16Z</time>
      </trkpt>
      <trkpt lat="42.79315" lon="3.02415">
        <ele>2</ele>
        <time>2020-07-14T05:32:22Z</time>
      </trkpt>
      <trkpt lat="42.79315" lon="3.02403">
        <ele>2</ele>
        <time>2020-07-14T05:32:28Z</time>
      </trkpt>
      <trkpt lat="42.79319" lon="3.024">
        <ele>7.4</ele>
        <time>2020-07-14T05:33:19Z</time>
      </trkpt>
      <trkpt lat="42.79333" lon="3.02326">
        <ele>7.2</ele>
        <time>2020-07-14T05:33:36Z</time>
      </trkpt>
      <trkpt lat="42.79352" lon="3.02252">
        <ele>6.4</ele>
        <time>2020-07-14T05:33:48Z</time>
      </trkpt>
      <trkpt lat="42.79368" lon="3.02181">
        <ele>5.2</ele>
        <time>2020-07-14T05:34:00Z</time>
      </trkpt>
      <trkpt lat="42.79385" lon="3.02107">
        <ele>4.6</ele>
        <time>2020-07-14T05:34:13Z</time>
      </trkpt>
      <trkpt lat="42.79399" lon="3.0204">
        <ele>4.4</ele>
        <time>2020-07-14T05:34:25Z</time>
      </trkpt>
      <trkpt lat="42.79405" lon="3.02018">
        <ele>4.6</ele>
        <time>2020-07-14T05:34:29Z</time>
      </trkpt>
      <trkpt lat="42.79425" lon="3.01961">
        <ele>4.8</ele>
        <time>2020-07-14T05:34:41Z</time>
      </trkpt>
      <trkpt lat="42.79441" lon="3.01951">
        <ele>5</ele>
        <time>2020-07-14T05:34:45Z</time>
      </trkpt>
      <trkpt lat="42.79445" lon="3.01949">
        <ele>5</ele>
        <time>2020-07-14T05:34:46Z</time>
      </trkpt>
      <trkpt lat="42.79498" lon="3.01928">
        <ele>5.4</ele>
        <time>2020-07-14T05:34:58Z</time>
      </trkpt>
      <trkpt lat="42.79554" lon="3.01904">
        <ele>5.6</ele>
        <time>2020-07-14T05:35:11Z</time>
      </trkpt>
      <trkpt lat="42.79609" lon="3.01879">
        <ele>5.4</ele>
        <time>2020-07-14T05:35:24Z</time>
      </trkpt>
      <trkpt lat="42.7966" lon="3.01857">
        <ele>5.6</ele>
        <time>2020-07-14T05:35:36Z</time>
      </trkpt>
      <trkpt lat="42.79712" lon="3.01834">
        <ele>5.6</ele>
        <time>2020-07-14T05:35:49Z</time>
      </trkpt>
      <trkpt lat="42.79766" lon="3.0181">
        <ele>5.4</ele>
        <time>2020-07-14T05:36:02Z</time>
      </trkpt>
      <trkpt lat="42.79784" lon="3.01801">
        <ele>5.4</ele>
        <time>2020-07-14T05:36:07Z</time>
      </trkpt>
      <trkpt lat="42.79839" lon="3.01775">
        <ele>5</ele>
        <time>2020-07-14T05:36:21Z</time>
      </trkpt>
      <trkpt lat="42.7989" lon="3.0175">
        <ele>4.6</ele>
        <time>2020-07-14T05:36:34Z</time>
      </trkpt>
      <trkpt lat="42.79924" lon="3.01722">
        <ele>4.2</ele>
        <time>2020-07-14T05:36:47Z</time>
      </trkpt>
      <trkpt lat="42.79931" lon="3.01715">
        <ele>4</ele>
        <time>2020-07-14T05:36:49Z</time>
      </trkpt>
      <trkpt lat="42.79955" lon="3.0168">
        <ele>3.4</ele>
        <time>2020-07-14T05:36:57Z</time>
      </trkpt>
      <trkpt lat="42.80001" lon="3.01635">
        <ele>3</ele>
        <time>2020-07-14T05:37:10Z</time>
      </trkpt>
      <trkpt lat="42.80025" lon="3.0161">
        <ele>2.8</ele>
        <time>2020-07-14T05:37:17Z</time>
      </trkpt>
      <trkpt lat="42.80048" lon="3.01586">
        <ele>2.6</ele>
        <time>2020-07-14T05:37:24Z</time>
      </trkpt>
      <trkpt lat="42.8009" lon="3.01539">
        <ele>2.8</ele>
        <time>2020-07-14T05:37:36Z</time>
      </trkpt>
      <trkpt lat="42.80092" lon="3.01524">
        <ele>2.8</ele>
        <time>2020-07-14T05:37:40Z</time>
      </trkpt>
      <trkpt lat="42.8009" lon="3.01507">
        <ele>2.8</ele>
        <time>2020-07-14T05:37:44Z</time>
      </trkpt>
      <trkpt lat="42.80116" lon="3.01481">
        <ele>2.8</ele>
        <time>2020-07-14T05:37:52Z</time>
      </trkpt>
      <trkpt lat="42.80147" lon="3.01442">
        <ele>2.6</ele>
        <time>2020-07-14T05:38:02Z</time>
      </trkpt>
      <trkpt lat="42.80171" lon="3.01372">
        <ele>2.4</ele>
        <time>2020-07-14T05:38:18Z</time>
      </trkpt>
      <trkpt lat="42.80188" lon="3.01305">
        <ele>3.6</ele>
        <time>2020-07-14T05:38:34Z</time>
      </trkpt>
      <trkpt lat="42.80232" lon="3.01255">
        <ele>5</ele>
        <time>2020-07-14T05:38:49Z</time>
      </trkpt>
      <trkpt lat="42.80271" lon="3.01205">
        <ele>4.6</ele>
        <time>2020-07-14T05:39:03Z</time>
      </trkpt>
      <trkpt lat="42.8027" lon="3.01197">
        <ele>4.4</ele>
        <time>2020-07-14T05:39:05Z</time>
      </trkpt>
      <trkpt lat="42.80251" lon="3.01192">
        <ele>4</ele>
        <time>2020-07-14T05:39:11Z</time>
      </trkpt>
      <trkpt lat="42.80211" lon="3.01194">
        <ele>3.2</ele>
        <time>2020-07-14T05:39:19Z</time>
      </trkpt>
      <trkpt lat="42.80157" lon="3.01189">
        <ele>2</ele>
        <time>2020-07-14T05:39:31Z</time>
      </trkpt>
      <trkpt lat="42.80103" lon="3.01188">
        <ele>0.80000000000001</ele>
        <time>2020-07-14T05:39:43Z</time>
      </trkpt>
      <trkpt lat="42.80094" lon="3.01186">
        <ele>0.60000000000002</ele>
        <time>2020-07-14T05:39:45Z</time>
      </trkpt>
      <trkpt lat="42.80081" lon="3.01185">
        <ele>0.39999999999998</ele>
        <time>2020-07-14T05:39:48Z</time>
      </trkpt>
      <trkpt lat="42.80075" lon="3.01161">
        <ele>-0.19999999999999</ele>
        <time>2020-07-14T05:39:54Z</time>
      </trkpt>
      <trkpt lat="42.80078" lon="3.0109">
        <ele>-0.80000000000001</ele>
        <time>2020-07-14T05:40:05Z</time>
      </trkpt>
      <trkpt lat="42.80076" lon="3.01014">
        <ele>-0.39999999999998</ele>
        <time>2020-07-14T05:40:17Z</time>
      </trkpt>
      <trkpt lat="42.80073" lon="3.00936">
        <ele>0.19999999999999</ele>
        <time>2020-07-14T05:40:29Z</time>
      </trkpt>
      <trkpt lat="42.80068" lon="3.0086">
        <ele>0.60000000000002</ele>
        <time>2020-07-14T05:40:41Z</time>
      </trkpt>
      <trkpt lat="42.80061" lon="3.00786">
        <ele>0.80000000000001</ele>
        <time>2020-07-14T05:40:53Z</time>
      </trkpt>
      <trkpt lat="42.80059" lon="3.00712">
        <ele>0.80000000000001</ele>
        <time>2020-07-14T05:41:05Z</time>
      </trkpt>
      <trkpt lat="42.8005" lon="3.00639">
        <ele>1</ele>
        <time>2020-07-14T05:41:17Z</time>
      </trkpt>
      <trkpt lat="42.80047" lon="3.00621">
        <ele>1.2</ele>
        <time>2020-07-14T05:41:20Z</time>
      </trkpt>
      <trkpt lat="42.80049" lon="3.0055">
        <ele>1.6</ele>
        <time>2020-07-14T05:41:32Z</time>
      </trkpt>
      <trkpt lat="42.8005" lon="3.00538">
        <ele>1.6</ele>
        <time>2020-07-14T05:41:34Z</time>
      </trkpt>
      <trkpt lat="42.8007" lon="3.00467">
        <ele>2.4</ele>
        <time>2020-07-14T05:41:47Z</time>
      </trkpt>
      <trkpt lat="42.8009" lon="3.00394">
        <ele>2.4</ele>
        <time>2020-07-14T05:42:01Z</time>
      </trkpt>
      <trkpt lat="42.80109" lon="3.00321">
        <ele>2</ele>
        <time>2020-07-14T05:42:15Z</time>
      </trkpt>
      <trkpt lat="42.8013" lon="3.0025">
        <ele>1.8</ele>
        <time>2020-07-14T05:42:29Z</time>
      </trkpt>
      <trkpt lat="42.80146" lon="3.0018">
        <ele>2</ele>
        <time>2020-07-14T05:42:43Z</time>
      </trkpt>
      <trkpt lat="42.80144" lon="3.00147">
        <ele>2</ele>
        <time>2020-07-14T05:42:49Z</time>
      </trkpt>
      <trkpt lat="42.80134" lon="3.0007">
        <ele>2</ele>
        <time>2020-07-14T05:43:02Z</time>
      </trkpt>
      <trkpt lat="42.80131" lon="3.00054">
        <ele>1.8</ele>
        <time>2020-07-14T05:43:05Z</time>
      </trkpt>
      <trkpt lat="42.80124" lon="3.00004">
        <ele>1.6</ele>
        <time>2020-07-14T05:43:14Z</time>
      </trkpt>
      <trkpt lat="42.80113" lon="2.99926">
        <ele>1.2</ele>
        <time>2020-07-14T05:43:28Z</time>
      </trkpt>
      <trkpt lat="42.80103" lon="2.99851">
        <ele>1.2</ele>
        <time>2020-07-14T05:43:42Z</time>
      </trkpt>
      <trkpt lat="42.80093" lon="2.99776">
        <ele>1.2</ele>
        <time>2020-07-14T05:43:57Z</time>
      </trkpt>
      <trkpt lat="42.80083" lon="2.99699">
        <ele>1</ele>
        <time>2020-07-14T05:44:11Z</time>
      </trkpt>
      <trkpt lat="42.80066" lon="2.99624">
        <ele>0.80000000000001</ele>
        <time>2020-07-14T05:44:24Z</time>
      </trkpt>
      <trkpt lat="42.80057" lon="2.99604">
        <ele>0.80000000000001</ele>
        <time>2020-07-14T05:44:28Z</time>
      </trkpt>
      <trkpt lat="42.80039" lon="2.99564">
        <ele>1</ele>
        <time>2020-07-14T05:44:38Z</time>
      </trkpt>
      <trkpt lat="42.80017" lon="2.99546">
        <ele>1.2</ele>
        <time>2020-07-14T05:44:45Z</time>
      </trkpt>
      <trkpt lat="42.80015" lon="2.99541">
        <ele>1.4</ele>
        <time>2020-07-14T05:44:46Z</time>
      </trkpt>
      <trkpt lat="42.80013" lon="2.99518">
        <ele>1.4</ele>
        <time>2020-07-14T05:44:50Z</time>
      </trkpt>
      <trkpt lat="42.8001" lon="2.99485">
        <ele>1.4</ele>
        <time>2020-07-14T05:44:56Z</time>
      </trkpt>
      <trkpt lat="42.79988" lon="2.99463">
        <ele>1.4</ele>
        <time>2020-07-14T05:45:02Z</time>
      </trkpt>
      <trkpt lat="42.7998" lon="2.99456">
        <ele>1.2</ele>
        <time>2020-07-14T05:45:04Z</time>
      </trkpt>
      <trkpt lat="42.79968" lon="2.99435">
        <ele>1.2</ele>
        <time>2020-07-14T05:45:08Z</time>
      </trkpt>
      <trkpt lat="42.79967" lon="2.99429">
        <ele>1</ele>
        <time>2020-07-14T05:45:09Z</time>
      </trkpt>
      <trkpt lat="42.79965" lon="2.99387">
        <ele>0.80000000000001</ele>
        <time>2020-07-14T05:45:16Z</time>
      </trkpt>
      <trkpt lat="42.79964" lon="2.99362">
        <ele>0.39999999999998</ele>
        <time>2020-07-14T05:45:20Z</time>
      </trkpt>
      <trkpt lat="42.79958" lon="2.99339">
        <ele>0.39999999999998</ele>
        <time>2020-07-14T05:45:24Z</time>
      </trkpt>
      <trkpt lat="42.79948" lon="2.99326">
        <ele>0.39999999999998</ele>
        <time>2020-07-14T05:45:27Z</time>
      </trkpt>
      <trkpt lat="42.7993" lon="2.9931">
        <ele>0.60000000000002</ele>
        <time>2020-07-14T05:45:32Z</time>
      </trkpt>
      <trkpt lat="42.79899" lon="2.99272">
        <ele>0.80000000000001</ele>
        <time>2020-07-14T05:45:41Z</time>
      </trkpt>
      <trkpt lat="42.79892" lon="2.99265">
        <ele>0.80000000000001</ele>
        <time>2020-07-14T05:45:43Z</time>
      </trkpt>
      <trkpt lat="42.79884" lon="2.99257">
        <ele>0.80000000000001</ele>
        <time>2020-07-14T05:45:45Z</time>
      </trkpt>
      <trkpt lat="42.79837" lon="2.99214">
        <ele>1</ele>
        <time>2020-07-14T05:45:57Z</time>
      </trkpt>
      <trkpt lat="42.7979" lon="2.99168">
        <ele>1.2</ele>
        <time>2020-07-14T05:46:09Z</time>
      </trkpt>
      <trkpt lat="42.79742" lon="2.99122">
        <ele>2</ele>
        <time>2020-07-14T05:46:21Z</time>
      </trkpt>
      <trkpt lat="42.79695" lon="2.99076">
        <ele>2.8</ele>
        <time>2020-07-14T05:46:33Z</time>
      </trkpt>
      <trkpt lat="42.79659" lon="2.99042">
        <ele>3.4</ele>
        <time>2020-07-14T05:46:42Z</time>
      </trkpt>
      <trkpt lat="42.7965" lon="2.99041">
        <ele>3.6</ele>
        <time>2020-07-14T05:46:44Z</time>
      </trkpt>
      <trkpt lat="42.79631" lon="2.99044">
        <ele>4</ele>
        <time>2020-07-14T05:46:48Z</time>
      </trkpt>
      <trkpt lat="42.79616" lon="2.99026">
        <ele>4.2</ele>
        <time>2020-07-14T05:46:52Z</time>
      </trkpt>
      <trkpt lat="42.79574" lon="2.98979">
        <ele>4.6</ele>
        <time>2020-07-14T05:47:03Z</time>
      </trkpt>
      <trkpt lat="42.79527" lon="2.98938">
        <ele>4.6</ele>
        <time>2020-07-14T05:47:14Z</time>
      </trkpt>
      <trkpt lat="42.7948" lon="2.98898">
        <ele>4.4</ele>
        <time>2020-07-14T05:47:25Z</time>
      </trkpt>
      <trkpt lat="42.79464" lon="2.9888">
        <ele>4</ele>
        <time>2020-07-14T05:47:30Z</time>
      </trkpt>
      <trkpt lat="42.79464" lon="2.98864">
        <ele>4</ele>
        <time>2020-07-14T05:47:33Z</time>
      </trkpt>
      <trkpt lat="42.79481" lon="2.98791">
        <ele>3.2</ele>
        <time>2020-07-14T05:47:44Z</time>
      </trkpt>
      <trkpt lat="42.79493" lon="2.98715">
        <ele>3.2</ele>
        <time>2020-07-14T05:47:56Z</time>
      </trkpt>
      <trkpt lat="42.79508" lon="2.98638">
        <ele>3.6</ele>
        <time>2020-07-14T05:48:08Z</time>
      </trkpt>
      <trkpt lat="42.79516" lon="2.98601">
        <ele>3.8</ele>
        <time>2020-07-14T05:48:14Z</time>
      </trkpt>
      <trkpt lat="42.79532" lon="2.98524">
        <ele>3.8</ele>
        <time>2020-07-14T05:48:26Z</time>
      </trkpt>
      <trkpt lat="42.7955" lon="2.9845">
        <ele>3.6</ele>
        <time>2020-07-14T05:48:38Z</time>
      </trkpt>
      <trkpt lat="42.79553" lon="2.98437">
        <ele>3.6</ele>
        <time>2020-07-14T05:48:40Z</time>
      </trkpt>
      <trkpt lat="42.79559" lon="2.98407">
        <ele>3.4</ele>
        <time>2020-07-14T05:48:45Z</time>
      </trkpt>
      <trkpt lat="42.79565" lon="2.98391">
        <ele>3.2</ele>
        <time>2020-07-14T05:48:48Z</time>
      </trkpt>
      <trkpt lat="42.79587" lon="2.98344">
        <ele>2.8</ele>
        <time>2020-07-14T05:48:58Z</time>
      </trkpt>
      <trkpt lat="42.79618" lon="2.9828">
        <ele>2.4</ele>
        <time>2020-07-14T05:49:10Z</time>
      </trkpt>
      <trkpt lat="42.79625" lon="2.98269">
        <ele>2.4</ele>
        <time>2020-07-14T05:49:13Z</time>
      </trkpt>
      <trkpt lat="42.79645" lon="2.98279">
        <ele>2.2</ele>
        <time>2020-07-14T05:49:19Z</time>
      </trkpt>
      <trkpt lat="42.79689" lon="2.98322">
        <ele>2.4</ele>
        <time>2020-07-14T05:49:32Z</time>
      </trkpt>
      <trkpt lat="42.79736" lon="2.98368">
        <ele>2.2</ele>
        <time>2020-07-14T05:49:46Z</time>
      </trkpt>
      <trkpt lat="42.79779" lon="2.98412">
        <ele>1.8</ele>
        <time>2020-07-14T05:49:57Z</time>
      </trkpt>
      <trkpt lat="42.79794" lon="2.98431">
        <ele>1.8</ele>
        <time>2020-07-14T05:50:01Z</time>
      </trkpt>
      <trkpt lat="42.79809" lon="2.98502">
        <ele>2.2</ele>
        <time>2020-07-14T05:50:13Z</time>
      </trkpt>
      <trkpt lat="42.79816" lon="2.98503">
        <ele>2.2</ele>
        <time>2020-07-14T05:50:14Z</time>
      </trkpt>
      <trkpt lat="42.79868" lon="2.98532">
        <ele>2.6</ele>
        <time>2020-07-14T05:50:23Z</time>
      </trkpt>
      <trkpt lat="42.79889" lon="2.98544">
        <ele>2.8</ele>
        <time>2020-07-14T05:50:27Z</time>
      </trkpt>
      <trkpt lat="42.79931" lon="2.98555">
        <ele>3.4</ele>
        <time>2020-07-14T05:50:35Z</time>
      </trkpt>
      <trkpt lat="42.79953" lon="2.98529">
        <ele>3.8</ele>
        <time>2020-07-14T05:50:41Z</time>
      </trkpt>
      <trkpt lat="42.79976" lon="2.98461">
        <ele>3.6</ele>
        <time>2020-07-14T05:50:52Z</time>
      </trkpt>
      <trkpt lat="42.79979" lon="2.98449">
        <ele>3.6</ele>
        <time>2020-07-14T05:50:54Z</time>
      </trkpt>
      <trkpt lat="42.79994" lon="2.98424">
        <ele>3.4</ele>
        <time>2020-07-14T05:50:59Z</time>
      </trkpt>
      <trkpt lat="42.80006" lon="2.9839">
        <ele>3</ele>
        <time>2020-07-14T05:51:05Z</time>
      </trkpt>
      <trkpt lat="42.80013" lon="2.98367">
        <ele>2.8</ele>
        <time>2020-07-14T05:51:09Z</time>
      </trkpt>
      <trkpt lat="42.80022" lon="2.98327">
        <ele>2.6</ele>
        <time>2020-07-14T05:51:16Z</time>
      </trkpt>
      <trkpt lat="42.80024" lon="2.98297">
        <ele>2.6</ele>
        <time>2020-07-14T05:51:21Z</time>
      </trkpt>
      <trkpt lat="42.80029" lon="2.98254">
        <ele>2.6</ele>
        <time>2020-07-14T05:51:28Z</time>
      </trkpt>
      <trkpt lat="42.80025" lon="2.98234">
        <ele>2.8</ele>
        <time>2020-07-14T05:51:31Z</time>
      </trkpt>
      <trkpt lat="42.79994" lon="2.9817">
        <ele>3.4</ele>
        <time>2020-07-14T05:51:42Z</time>
      </trkpt>
      <trkpt lat="42.79988" lon="2.98159">
        <ele>3.4</ele>
        <time>2020-07-14T05:51:44Z</time>
      </trkpt>
      <trkpt lat="42.7997" lon="2.98126">
        <ele>4</ele>
        <time>2020-07-14T05:51:50Z</time>
      </trkpt>
      <trkpt lat="42.79944" lon="2.98077">
        <ele>5.2</ele>
        <time>2020-07-14T05:52:02Z</time>
      </trkpt>
      <trkpt lat="42.79959" lon="2.98079">
        <ele>5.8</ele>
        <time>2020-07-14T05:52:10Z</time>
      </trkpt>
      <trkpt lat="42.79978" lon="2.98094">
        <ele>6.2</ele>
        <time>2020-07-14T05:52:15Z</time>
      </trkpt>
      <trkpt lat="42.79991" lon="2.98104">
        <ele>6.4</ele>
        <time>2020-07-14T05:52:20Z</time>
      </trkpt>
      <trkpt lat="42.79996" lon="2.98121">
        <ele>6.6</ele>
        <time>2020-07-14T05:52:23Z</time>
      </trkpt>
      <trkpt lat="42.80017" lon="2.98148">
        <ele>6.6</ele>
        <time>2020-07-14T05:52:29Z</time>
      </trkpt>
      <trkpt lat="42.80035" lon="2.98156">
        <ele>6.6</ele>
        <time>2020-07-14T05:52:33Z</time>
      </trkpt>
      <trkpt lat="42.8005" lon="2.98158">
        <ele>6.6</ele>
        <time>2020-07-14T05:52:36Z</time>
      </trkpt>
      <trkpt lat="42.80073" lon="2.98145">
        <ele>6.2</ele>
        <time>2020-07-14T05:52:42Z</time>
      </trkpt>
      <trkpt lat="42.80112" lon="2.98131">
        <ele>5.8</ele>
        <time>2020-07-14T05:52:53Z</time>
      </trkpt>
      <trkpt lat="42.80131" lon="2.98074">
        <ele>4.4</ele>
        <time>2020-07-14T05:53:08Z</time>
      </trkpt>
      <trkpt lat="42.80132" lon="2.9807">
        <ele>4</ele>
        <time>2020-07-14T05:53:12Z</time>
      </trkpt>
      <trkpt lat="42.80156" lon="2.98001">
        <ele>2.8</ele>
        <time>2020-07-14T05:53:28Z</time>
      </trkpt>
      <trkpt lat="42.80177" lon="2.97929">
        <ele>2.4</ele>
        <time>2020-07-14T05:53:42Z</time>
      </trkpt>
      <trkpt lat="42.80198" lon="2.97856">
        <ele>2.2</ele>
        <time>2020-07-14T05:53:55Z</time>
      </trkpt>
      <trkpt lat="42.802" lon="2.97851">
        <ele>2.2</ele>
        <time>2020-07-14T05:53:56Z</time>
      </trkpt>
      <trkpt lat="42.8023" lon="2.97783">
        <ele>2</ele>
        <time>2020-07-14T05:54:10Z</time>
      </trkpt>
      <trkpt lat="42.80261" lon="2.9772">
        <ele>1.6</ele>
        <time>2020-07-14T05:54:22Z</time>
      </trkpt>
      <trkpt lat="42.8027" lon="2.97701">
        <ele>1.4</ele>
        <time>2020-07-14T05:54:26Z</time>
      </trkpt>
      <trkpt lat="42.80275" lon="2.97634">
        <ele>1</ele>
        <time>2020-07-14T05:54:42Z</time>
      </trkpt>
      <trkpt lat="42.80271" lon="2.97614">
        <ele>1.2</ele>
        <time>2020-07-14T05:54:45Z</time>
      </trkpt>
      <trkpt lat="42.80285" lon="2.97543">
        <ele>1.2</ele>
        <time>2020-07-14T05:54:55Z</time>
      </trkpt>
      <trkpt lat="42.80281" lon="2.9751">
        <ele>1.4</ele>
        <time>2020-07-14T05:55:00Z</time>
      </trkpt>
      <trkpt lat="42.80278" lon="2.97498">
        <ele>1.6</ele>
        <time>2020-07-14T05:55:02Z</time>
      </trkpt>
      <trkpt lat="42.80267" lon="2.9742">
        <ele>2.4</ele>
        <time>2020-07-14T05:55:14Z</time>
      </trkpt>
      <trkpt lat="42.80267" lon="2.97413">
        <ele>2.4</ele>
        <time>2020-07-14T05:55:15Z</time>
      </trkpt>
      <trkpt lat="42.80276" lon="2.97338">
        <ele>3</ele>
        <time>2020-07-14T05:55:27Z</time>
      </trkpt>
      <trkpt lat="42.80282" lon="2.97304">
        <ele>3.6</ele>
        <time>2020-07-14T05:55:34Z</time>
      </trkpt>
      <trkpt lat="42.80286" lon="2.97301">
        <ele>3.8</ele>
        <time>2020-07-14T05:55:37Z</time>
      </trkpt>
      <trkpt lat="42.80299" lon="2.97287">
        <ele>4</ele>
        <time>2020-07-14T05:55:44Z</time>
      </trkpt>
      <trkpt lat="42.80305" lon="2.97274">
        <ele>4.2</ele>
        <time>2020-07-14T05:55:47Z</time>
      </trkpt>
      <trkpt lat="42.80352" lon="2.97228">
        <ele>5.6</ele>
        <time>2020-07-14T05:56:01Z</time>
      </trkpt>
      <trkpt lat="42.80363" lon="2.9722">
        <ele>6</ele>
        <time>2020-07-14T05:56:04Z</time>
      </trkpt>
      <trkpt lat="42.8038" lon="2.97219">
        <ele>6.6</ele>
        <time>2020-07-14T05:56:08Z</time>
      </trkpt>
      <trkpt lat="42.80426" lon="2.97232">
        <ele>8.4</ele>
        <time>2020-07-14T05:56:18Z</time>
      </trkpt>
      <trkpt lat="42.80447" lon="2.97208">
        <ele>9</ele>
        <time>2020-07-14T05:56:24Z</time>
      </trkpt>
      <trkpt lat="42.80477" lon="2.97142">
        <ele>9.4</ele>
        <time>2020-07-14T05:56:35Z</time>
      </trkpt>
      <trkpt lat="42.80509" lon="2.97083">
        <ele>10.2</ele>
        <time>2020-07-14T05:56:50Z</time>
      </trkpt>
      <trkpt lat="42.80512" lon="2.97075">
        <ele>9.4</ele>
        <time>2020-07-14T05:57:03Z</time>
      </trkpt>
      <trkpt lat="42.80559" lon="2.97041">
        <ele>7.2</ele>
        <time>2020-07-14T05:57:18Z</time>
      </trkpt>
      <trkpt lat="42.80577" lon="2.97033">
        <ele>6.6</ele>
        <time>2020-07-14T05:57:22Z</time>
      </trkpt>
      <trkpt lat="42.80626" lon="2.97011">
        <ele>5.8</ele>
        <time>2020-07-14T05:57:33Z</time>
      </trkpt>
      <trkpt lat="42.80642" lon="2.96987">
        <ele>5.4</ele>
        <time>2020-07-14T05:57:38Z</time>
      </trkpt>
      <trkpt lat="42.80669" lon="2.96923">
        <ele>4</ele>
        <time>2020-07-14T05:57:49Z</time>
      </trkpt>
      <trkpt lat="42.80683" lon="2.96889">
        <ele>3.4</ele>
        <time>2020-07-14T05:57:55Z</time>
      </trkpt>
      <trkpt lat="42.80686" lon="2.96856">
        <ele>3.2</ele>
        <time>2020-07-14T05:58:00Z</time>
      </trkpt>
      <trkpt lat="42.80679" lon="2.96778">
        <ele>3.4</ele>
        <time>2020-07-14T05:58:12Z</time>
      </trkpt>
      <trkpt lat="42.80679" lon="2.96699">
        <ele>5.2</ele>
        <time>2020-07-14T05:58:25Z</time>
      </trkpt>
      <trkpt lat="42.80698" lon="2.96628">
        <ele>6.6</ele>
        <time>2020-07-14T05:58:36Z</time>
      </trkpt>
      <trkpt lat="42.80694" lon="2.96591">
        <ele>7</ele>
        <time>2020-07-14T05:58:42Z</time>
      </trkpt>
      <trkpt lat="42.8069" lon="2.9658">
        <ele>7.2</ele>
        <time>2020-07-14T05:58:44Z</time>
      </trkpt>
      <trkpt lat="42.80693" lon="2.96541">
        <ele>7</ele>
        <time>2020-07-14T05:58:50Z</time>
      </trkpt>
      <trkpt lat="42.80699" lon="2.96516">
        <ele>6.6</ele>
        <time>2020-07-14T05:58:56Z</time>
      </trkpt>
      <trkpt lat="42.80753" lon="2.96487">
        <ele>5.2</ele>
        <time>2020-07-14T05:59:09Z</time>
      </trkpt>
      <trkpt lat="42.80775" lon="2.96476">
        <ele>5</ele>
        <time>2020-07-14T05:59:14Z</time>
      </trkpt>
      <trkpt lat="42.8083" lon="2.96449">
        <ele>4</ele>
        <time>2020-07-14T05:59:26Z</time>
      </trkpt>
      <trkpt lat="42.8084" lon="2.96445">
        <ele>3.8</ele>
        <time>2020-07-14T05:59:28Z</time>
      </trkpt>
      <trkpt lat="42.80872" lon="2.96428">
        <ele>3.6</ele>
        <time>2020-07-14T05:59:35Z</time>
      </trkpt>
      <trkpt lat="42.80891" lon="2.96419">
        <ele>3.6</ele>
        <time>2020-07-14T05:59:39Z</time>
      </trkpt>
      <trkpt lat="42.80943" lon="2.96393">
        <ele>4.4</ele>
        <time>2020-07-14T05:59:50Z</time>
      </trkpt>
      <trkpt lat="42.80994" lon="2.96367">
        <ele>5.4</ele>
        <time>2020-07-14T06:00:01Z</time>
      </trkpt>
      <trkpt lat="42.80998" lon="2.96364">
        <ele>5.4</ele>
        <time>2020-07-14T06:00:02Z</time>
      </trkpt>
      <trkpt lat="42.81053" lon="2.96338">
        <ele>6.6</ele>
        <time>2020-07-14T06:00:14Z</time>
      </trkpt>
      <trkpt lat="42.81085" lon="2.9632">
        <ele>6.8</ele>
        <time>2020-07-14T06:00:21Z</time>
      </trkpt>
      <trkpt lat="42.81135" lon="2.96292">
        <ele>6.8</ele>
        <time>2020-07-14T06:00:33Z</time>
      </trkpt>
      <trkpt lat="42.81188" lon="2.96268">
        <ele>6.8</ele>
        <time>2020-07-14T06:00:44Z</time>
      </trkpt>
      <trkpt lat="42.81239" lon="2.96241">
        <ele>6.2</ele>
        <time>2020-07-14T06:00:55Z</time>
      </trkpt>
      <trkpt lat="42.81294" lon="2.96214">
        <ele>6.2</ele>
        <time>2020-07-14T06:01:07Z</time>
      </trkpt>
      <trkpt lat="42.81349" lon="2.96187">
        <ele>6.4</ele>
        <time>2020-07-14T06:01:19Z</time>
      </trkpt>
      <trkpt lat="42.81374" lon="2.96174">
        <ele>6.2</ele>
        <time>2020-07-14T06:01:25Z</time>
      </trkpt>
      <trkpt lat="42.81375" lon="2.96152">
        <ele>6.4</ele>
        <time>2020-07-14T06:01:30Z</time>
      </trkpt>
      <trkpt lat="42.81361" lon="2.9613">
        <ele>6.6</ele>
        <time>2020-07-14T06:01:35Z</time>
      </trkpt>
      <trkpt lat="42.81338" lon="2.96097">
        <ele>7.2</ele>
        <time>2020-07-14T06:01:42Z</time>
      </trkpt>
      <trkpt lat="42.81326" lon="2.96078">
        <ele>7.4</ele>
        <time>2020-07-14T06:01:46Z</time>
      </trkpt>
      <trkpt lat="42.8131" lon="2.96054">
        <ele>7.8</ele>
        <time>2020-07-14T06:01:51Z</time>
      </trkpt>
      <trkpt lat="42.81304" lon="2.96044">
        <ele>8</ele>
        <time>2020-07-14T06:01:53Z</time>
      </trkpt>
      <trkpt lat="42.8129" lon="2.96026">
        <ele>8.2</ele>
        <time>2020-07-14T06:01:57Z</time>
      </trkpt>
      <trkpt lat="42.81281" lon="2.96012">
        <ele>8.4</ele>
        <time>2020-07-14T06:02:00Z</time>
      </trkpt>
      <trkpt lat="42.81265" lon="2.95988">
        <ele>8.6</ele>
        <time>2020-07-14T06:02:05Z</time>
      </trkpt>
      <trkpt lat="42.81246" lon="2.9596">
        <ele>9</ele>
        <time>2020-07-14T06:02:11Z</time>
      </trkpt>
      <trkpt lat="42.81234" lon="2.95942">
        <ele>9</ele>
        <time>2020-07-14T06:02:15Z</time>
      </trkpt>
      <trkpt lat="42.81224" lon="2.95927">
        <ele>9.2</ele>
        <time>2020-07-14T06:02:18Z</time>
      </trkpt>
      <trkpt lat="42.81201" lon="2.95896">
        <ele>8.6</ele>
        <time>2020-07-14T06:02:25Z</time>
      </trkpt>
      <trkpt lat="42.81195" lon="2.95886">
        <ele>8.4</ele>
        <time>2020-07-14T06:02:27Z</time>
      </trkpt>
      <trkpt lat="42.81182" lon="2.95869">
        <ele>8</ele>
        <time>2020-07-14T06:02:31Z</time>
      </trkpt>
      <trkpt lat="42.81172" lon="2.95824">
        <ele>6.4</ele>
        <time>2020-07-14T06:02:44Z</time>
      </trkpt>
      <trkpt lat="42.81218" lon="2.95787">
        <ele>3.8</ele>
        <time>2020-07-14T06:02:53Z</time>
      </trkpt>
      <trkpt lat="42.81234" lon="2.95766">
        <ele>2.6</ele>
        <time>2020-07-14T06:02:58Z</time>
      </trkpt>
      <trkpt lat="42.81274" lon="2.95715">
        <ele>1.4</ele>
        <time>2020-07-14T06:03:10Z</time>
      </trkpt>
      <trkpt lat="42.81315" lon="2.95661">
        <ele>1.4</ele>
        <time>2020-07-14T06:03:23Z</time>
      </trkpt>
      <trkpt lat="42.81352" lon="2.95604">
        <ele>1.2</ele>
        <time>2020-07-14T06:03:36Z</time>
      </trkpt>
      <trkpt lat="42.81383" lon="2.9554">
        <ele>1.6</ele>
        <time>2020-07-14T06:03:50Z</time>
      </trkpt>
      <trkpt lat="42.81416" lon="2.95476">
        <ele>1.8</ele>
        <time>2020-07-14T06:04:03Z</time>
      </trkpt>
      <trkpt lat="42.81448" lon="2.95414">
        <ele>1.8</ele>
        <time>2020-07-14T06:04:16Z</time>
      </trkpt>
      <trkpt lat="42.81486" lon="2.95357">
        <ele>2</ele>
        <time>2020-07-14T06:04:30Z</time>
      </trkpt>
      <trkpt lat="42.81505" lon="2.9533">
        <ele>2</ele>
        <time>2020-07-14T06:04:37Z</time>
      </trkpt>
      <trkpt lat="42.81523" lon="2.95284">
        <ele>2.2</ele>
        <time>2020-07-14T06:04:49Z</time>
      </trkpt>
      <trkpt lat="42.81519" lon="2.95281">
        <ele>2.2</ele>
        <time>2020-07-14T06:04:54Z</time>
      </trkpt>
      <trkpt lat="42.81524" lon="2.95281">
        <ele>1.6</ele>
        <time>2020-07-14T06:05:32Z</time>
      </trkpt>
      <trkpt lat="42.81551" lon="2.95214">
        <ele>1.8</ele>
        <time>2020-07-14T06:05:50Z</time>
      </trkpt>
      <trkpt lat="42.81576" lon="2.95155">
        <ele>2.4</ele>
        <time>2020-07-14T06:06:03Z</time>
      </trkpt>
      <trkpt lat="42.81604" lon="2.95091">
        <ele>2.2</ele>
        <time>2020-07-14T06:06:16Z</time>
      </trkpt>
      <trkpt lat="42.81639" lon="2.95028">
        <ele>1.8</ele>
        <time>2020-07-14T06:06:31Z</time>
      </trkpt>
      <trkpt lat="42.81647" lon="2.95016">
        <ele>1.6</ele>
        <time>2020-07-14T06:06:34Z</time>
      </trkpt>
      <trkpt lat="42.81679" lon="2.94957">
        <ele>1.8</ele>
        <time>2020-07-14T06:06:48Z</time>
      </trkpt>
      <trkpt lat="42.81711" lon="2.94892">
        <ele>2.4</ele>
        <time>2020-07-14T06:07:04Z</time>
      </trkpt>
      <trkpt lat="42.81732" lon="2.94822">
        <ele>3.8</ele>
        <time>2020-07-14T06:07:20Z</time>
      </trkpt>
      <trkpt lat="42.81761" lon="2.94787">
        <ele>4.2</ele>
        <time>2020-07-14T06:07:29Z</time>
      </trkpt>
      <trkpt lat="42.81807" lon="2.94741">
        <ele>4</ele>
        <time>2020-07-14T06:07:42Z</time>
      </trkpt>
      <trkpt lat="42.81821" lon="2.94726">
        <ele>4</ele>
        <time>2020-07-14T06:07:46Z</time>
      </trkpt>
      <trkpt lat="42.81857" lon="2.94669">
        <ele>3.6</ele>
        <time>2020-07-14T06:07:58Z</time>
      </trkpt>
      <trkpt lat="42.81877" lon="2.9463">
        <ele>3.2</ele>
        <time>2020-07-14T06:08:06Z</time>
      </trkpt>
      <trkpt lat="42.81902" lon="2.94587">
        <ele>2</ele>
        <time>2020-07-14T06:08:15Z</time>
      </trkpt>
      <trkpt lat="42.81941" lon="2.94536">
        <ele>0.39999999999998</ele>
        <time>2020-07-14T06:08:27Z</time>
      </trkpt>
      <trkpt lat="42.8197" lon="2.94471">
        <ele>-0.39999999999998</ele>
        <time>2020-07-14T06:08:40Z</time>
      </trkpt>
      <trkpt lat="42.81991" lon="2.94401">
        <ele>-0.39999999999998</ele>
        <time>2020-07-14T06:08:54Z</time>
      </trkpt>
      <trkpt lat="42.81999" lon="2.94342">
        <ele>-0.19999999999999</ele>
        <time>2020-07-14T06:09:05Z</time>
      </trkpt>
      <trkpt lat="42.82001" lon="2.94324">
        <ele>0.19999999999999</ele>
        <time>2020-07-14T06:09:08Z</time>
      </trkpt>
      <trkpt lat="42.82012" lon="2.94253">
        <ele>1.4</ele>
        <time>2020-07-14T06:09:21Z</time>
      </trkpt>
      <trkpt lat="42.82015" lon="2.94224">
        <ele>1.8</ele>
        <time>2020-07-14T06:09:26Z</time>
      </trkpt>
      <trkpt lat="42.82018" lon="2.94199">
        <ele>2.2</ele>
        <time>2020-07-14T06:09:30Z</time>
      </trkpt>
      <trkpt lat="42.82029" lon="2.94143">
        <ele>2.6</ele>
        <time>2020-07-14T06:09:39Z</time>
      </trkpt>
      <trkpt lat="42.82052" lon="2.94073">
        <ele>3.8</ele>
        <time>2020-07-14T06:09:51Z</time>
      </trkpt>
      <trkpt lat="42.82077" lon="2.94003">
        <ele>3.8</ele>
        <time>2020-07-14T06:10:02Z</time>
      </trkpt>
      <trkpt lat="42.8209" lon="2.93975">
        <ele>4</ele>
        <time>2020-07-14T06:10:07Z</time>
      </trkpt>
      <trkpt lat="42.82122" lon="2.93915">
        <ele>4.2</ele>
        <time>2020-07-14T06:10:18Z</time>
      </trkpt>
      <trkpt lat="42.82147" lon="2.93877">
        <ele>4.4</ele>
        <time>2020-07-14T06:10:26Z</time>
      </trkpt>
      <trkpt lat="42.82192" lon="2.93834">
        <ele>4.4</ele>
        <time>2020-07-14T06:10:39Z</time>
      </trkpt>
      <trkpt lat="42.82209" lon="2.93817">
        <ele>4.4</ele>
        <time>2020-07-14T06:10:44Z</time>
      </trkpt>
      <trkpt lat="42.82237" lon="2.93786">
        <ele>4.2</ele>
        <time>2020-07-14T06:10:52Z</time>
      </trkpt>
      <trkpt lat="42.8226" lon="2.93754">
        <ele>4</ele>
        <time>2020-07-14T06:10:59Z</time>
      </trkpt>
      <trkpt lat="42.823" lon="2.93698">
        <ele>3.8</ele>
        <time>2020-07-14T06:11:13Z</time>
      </trkpt>
      <trkpt lat="42.82334" lon="2.93648">
        <ele>4</ele>
        <time>2020-07-14T06:11:25Z</time>
      </trkpt>
      <trkpt lat="42.82366" lon="2.93583">
        <ele>4.6</ele>
        <time>2020-07-14T06:11:38Z</time>
      </trkpt>
      <trkpt lat="42.82368" lon="2.93578">
        <ele>4.8</ele>
        <time>2020-07-14T06:11:39Z</time>
      </trkpt>
      <trkpt lat="42.82397" lon="2.9351">
        <ele>4.6</ele>
        <time>2020-07-14T06:11:52Z</time>
      </trkpt>
      <trkpt lat="42.82409" lon="2.93495">
        <ele>4.4</ele>
        <time>2020-07-14T06:11:56Z</time>
      </trkpt>
      <trkpt lat="42.82447" lon="2.93465">
        <ele>4.6</ele>
        <time>2020-07-14T06:12:06Z</time>
      </trkpt>
      <trkpt lat="42.82476" lon="2.93444">
        <ele>4.8</ele>
        <time>2020-07-14T06:12:14Z</time>
      </trkpt>
      <trkpt lat="42.82478" lon="2.93396">
        <ele>5</ele>
        <time>2020-07-14T06:12:23Z</time>
      </trkpt>
      <trkpt lat="42.82471" lon="2.93367">
        <ele>5</ele>
        <time>2020-07-14T06:12:28Z</time>
      </trkpt>
      <trkpt lat="42.82474" lon="2.93334">
        <ele>4.6</ele>
        <time>2020-07-14T06:12:33Z</time>
      </trkpt>
      <trkpt lat="42.82487" lon="2.93262">
        <ele>3.6</ele>
        <time>2020-07-14T06:12:44Z</time>
      </trkpt>
      <trkpt lat="42.825" lon="2.93199">
        <ele>3</ele>
        <time>2020-07-14T06:12:54Z</time>
      </trkpt>
      <trkpt lat="42.82517" lon="2.93127">
        <ele>2.8</ele>
        <time>2020-07-14T06:13:06Z</time>
      </trkpt>
      <trkpt lat="42.82534" lon="2.93055">
        <ele>3.2</ele>
        <time>2020-07-14T06:13:19Z</time>
      </trkpt>
      <trkpt lat="42.82544" lon="2.93017">
        <ele>3.6</ele>
        <time>2020-07-14T06:13:26Z</time>
      </trkpt>
      <trkpt lat="42.82566" lon="2.92946">
        <ele>4.4</ele>
        <time>2020-07-14T06:13:40Z</time>
      </trkpt>
      <trkpt lat="42.82588" lon="2.92877">
        <ele>4.8</ele>
        <time>2020-07-14T06:13:55Z</time>
      </trkpt>
      <trkpt lat="42.82611" lon="2.92811">
        <ele>5.6</ele>
        <time>2020-07-14T06:14:09Z</time>
      </trkpt>
      <trkpt lat="42.82635" lon="2.92744">
        <ele>6.6</ele>
        <time>2020-07-14T06:14:23Z</time>
      </trkpt>
      <trkpt lat="42.82658" lon="2.92691">
        <ele>6.6</ele>
        <time>2020-07-14T06:14:35Z</time>
      </trkpt>
      <trkpt lat="42.82682" lon="2.92704">
        <ele>6.6</ele>
        <time>2020-07-14T06:14:43Z</time>
      </trkpt>
      <trkpt lat="42.827" lon="2.92732">
        <ele>6.8</ele>
        <time>2020-07-14T06:14:49Z</time>
      </trkpt>
      <trkpt lat="42.82707" lon="2.92743">
        <ele>6.8</ele>
        <time>2020-07-14T06:14:51Z</time>
      </trkpt>
      <trkpt lat="42.82743" lon="2.92774">
        <ele>6.6</ele>
        <time>2020-07-14T06:14:59Z</time>
      </trkpt>
      <trkpt lat="42.8275" lon="2.92784">
        <ele>6.4</ele>
        <time>2020-07-14T06:15:01Z</time>
      </trkpt>
      <trkpt lat="42.82747" lon="2.92839">
        <ele>5.6</ele>
        <time>2020-07-14T06:15:09Z</time>
      </trkpt>
      <trkpt lat="42.82733" lon="2.92879">
        <ele>4.6</ele>
        <time>2020-07-14T06:15:14Z</time>
      </trkpt>
      <trkpt lat="42.8274" lon="2.9291">
        <ele>3.8</ele>
        <time>2020-07-14T06:15:18Z</time>
      </trkpt>
      <trkpt lat="42.82744" lon="2.92916">
        <ele>3.6</ele>
        <time>2020-07-14T06:15:19Z</time>
      </trkpt>
      <trkpt lat="42.82785" lon="2.92971">
        <ele>1.8</ele>
        <time>2020-07-14T06:15:28Z</time>
      </trkpt>
      <trkpt lat="42.82797" lon="2.92987">
        <ele>1</ele>
        <time>2020-07-14T06:15:31Z</time>
      </trkpt>
      <trkpt lat="42.82817" lon="2.92979">
        <ele>-0.19999999999999</ele>
        <time>2020-07-14T06:15:36Z</time>
      </trkpt>
      <trkpt lat="42.82859" lon="2.92937">
        <ele>-3</ele>
        <time>2020-07-14T06:15:46Z</time>
      </trkpt>
      <trkpt lat="42.82896" lon="2.92918">
        <ele>-4.6</ele>
        <time>2020-07-14T06:15:55Z</time>
      </trkpt>
      <trkpt lat="42.82928" lon="2.92905">
        <ele>-4.8</ele>
        <time>2020-07-14T06:16:02Z</time>
      </trkpt>
      <trkpt lat="42.82968" lon="2.92891">
        <ele>-4.6</ele>
        <time>2020-07-14T06:16:11Z</time>
      </trkpt>
      <trkpt lat="42.82994" lon="2.92862">
        <ele>-4</ele>
        <time>2020-07-14T06:16:19Z</time>
      </trkpt>
      <trkpt lat="42.83029" lon="2.92802">
        <ele>-2.8</ele>
        <time>2020-07-14T06:16:31Z</time>
      </trkpt>
      <trkpt lat="42.83059" lon="2.9274">
        <ele>-2</ele>
        <time>2020-07-14T06:16:43Z</time>
      </trkpt>
      <trkpt lat="42.83063" lon="2.92731">
        <ele>-2</ele>
        <time>2020-07-14T06:16:45Z</time>
      </trkpt>
      <trkpt lat="42.83089" lon="2.92665">
        <ele>-1.4</ele>
        <time>2020-07-14T06:17:00Z</time>
      </trkpt>
      <trkpt lat="42.83119" lon="2.92599">
        <ele>-1.2</ele>
        <time>2020-07-14T06:17:11Z</time>
      </trkpt>
      <trkpt lat="42.83153" lon="2.92539">
        <ele>-1.2</ele>
        <time>2020-07-14T06:17:22Z</time>
      </trkpt>
      <trkpt lat="42.83182" lon="2.92474">
        <ele>-1.2</ele>
        <time>2020-07-14T06:17:34Z</time>
      </trkpt>
      <trkpt lat="42.83211" lon="2.92438">
        <ele>-0.39999999999998</ele>
        <time>2020-07-14T06:17:45Z</time>
      </trkpt>
      <trkpt lat="42.8322" lon="2.92418">
        <ele>0.60000000000002</ele>
        <time>2020-07-14T06:17:50Z</time>
      </trkpt>
      <trkpt lat="42.83222" lon="2.92412">
        <ele>0.60000000000002</ele>
        <time>2020-07-14T06:17:51Z</time>
      </trkpt>
      <trkpt lat="42.83248" lon="2.92345">
        <ele>2.2</ele>
        <time>2020-07-14T06:18:06Z</time>
      </trkpt>
      <trkpt lat="42.83271" lon="2.92329">
        <ele>2.6</ele>
        <time>2020-07-14T06:18:12Z</time>
      </trkpt>
      <trkpt lat="42.83322" lon="2.92301">
        <ele>3.8</ele>
        <time>2020-07-14T06:18:26Z</time>
      </trkpt>
      <trkpt lat="42.83378" lon="2.92278">
        <ele>4.4</ele>
        <time>2020-07-14T06:18:40Z</time>
      </trkpt>
      <trkpt lat="42.83399" lon="2.92271">
        <ele>4.8</ele>
        <time>2020-07-14T06:18:45Z</time>
      </trkpt>
      <trkpt lat="42.83412" lon="2.92265">
        <ele>5</ele>
        <time>2020-07-14T06:18:48Z</time>
      </trkpt>
      <trkpt lat="42.83468" lon="2.92243">
        <ele>5.2</ele>
        <time>2020-07-14T06:19:01Z</time>
      </trkpt>
      <trkpt lat="42.83524" lon="2.92229">
        <ele>5.4</ele>
        <time>2020-07-14T06:19:14Z</time>
      </trkpt>
      <trkpt lat="42.83553" lon="2.92223">
        <ele>5.8</ele>
        <time>2020-07-14T06:19:24Z</time>
      </trkpt>
      <trkpt lat="42.83551" lon="2.92215">
        <ele>6.2</ele>
        <time>2020-07-14T06:19:28Z</time>
      </trkpt>
      <trkpt lat="42.8354" lon="2.92182">
        <ele>7</ele>
        <time>2020-07-14T06:19:41Z</time>
      </trkpt>
      <trkpt lat="42.83544" lon="2.92171">
        <ele>7.6</ele>
        <time>2020-07-14T06:19:47Z</time>
      </trkpt>
      <trkpt lat="42.83547" lon="2.92163">
        <ele>8.6</ele>
        <time>2020-07-14T06:25:31Z</time>
      </trkpt>
      <trkpt lat="42.83583" lon="2.92104">
        <ele>8.6</ele>
        <time>2020-07-14T06:25:49Z</time>
      </trkpt>
      <trkpt lat="42.83588" lon="2.92038">
        <ele>9.2</ele>
        <time>2020-07-14T06:26:05Z</time>
      </trkpt>
      <trkpt lat="42.83562" lon="2.91973">
        <ele>9.6</ele>
        <time>2020-07-14T06:26:20Z</time>
      </trkpt>
      <trkpt lat="42.83562" lon="2.9197">
        <ele>9.6</ele>
        <time>2020-07-14T06:26:21Z</time>
      </trkpt>
      <trkpt lat="42.83571" lon="2.91974">
        <ele>9.6</ele>
        <time>2020-07-14T06:26:26Z</time>
      </trkpt>
      <trkpt lat="42.83606" lon="2.9199">
        <ele>9.6</ele>
        <time>2020-07-14T06:26:35Z</time>
      </trkpt>
      <trkpt lat="42.83616" lon="2.91991">
        <ele>9.6</ele>
        <time>2020-07-14T06:26:37Z</time>
      </trkpt>
      <trkpt lat="42.83628" lon="2.91993">
        <ele>9.8</ele>
        <time>2020-07-14T06:26:40Z</time>
      </trkpt>
      <trkpt lat="42.83641" lon="2.91994">
        <ele>10</ele>
        <time>2020-07-14T06:26:43Z</time>
      </trkpt>
      <trkpt lat="42.83658" lon="2.91985">
        <ele>10.4</ele>
        <time>2020-07-14T06:26:47Z</time>
      </trkpt>
      <trkpt lat="42.8367" lon="2.91977">
        <ele>10.6</ele>
        <time>2020-07-14T06:26:50Z</time>
      </trkpt>
      <trkpt lat="42.83714" lon="2.91934">
        <ele>11.8</ele>
        <time>2020-07-14T06:27:03Z</time>
      </trkpt>
      <trkpt lat="42.83755" lon="2.91882">
        <ele>12.4</ele>
        <time>2020-07-14T06:27:17Z</time>
      </trkpt>
      <trkpt lat="42.83765" lon="2.91857">
        <ele>12.8</ele>
        <time>2020-07-14T06:27:23Z</time>
      </trkpt>
      <trkpt lat="42.83778" lon="2.91865">
        <ele>13</ele>
        <time>2020-07-14T06:27:27Z</time>
      </trkpt>
      <trkpt lat="42.83828" lon="2.91897">
        <ele>13.4</ele>
        <time>2020-07-14T06:27:42Z</time>
      </trkpt>
      <trkpt lat="42.83863" lon="2.91846">
        <ele>16</ele>
        <time>2020-07-14T06:27:57Z</time>
      </trkpt>
      <trkpt lat="42.83867" lon="2.91772">
        <ele>16.8</ele>
        <time>2020-07-14T06:28:15Z</time>
      </trkpt>
      <trkpt lat="42.83895" lon="2.9172">
        <ele>17.4</ele>
        <time>2020-07-14T06:28:34Z</time>
      </trkpt>
      <trkpt lat="42.83935" lon="2.91671">
        <ele>18.2</ele>
        <time>2020-07-14T06:28:53Z</time>
      </trkpt>
      <trkpt lat="42.83959" lon="2.91605">
        <ele>21.2</ele>
        <time>2020-07-14T06:29:17Z</time>
      </trkpt>
      <trkpt lat="42.83999" lon="2.91554">
        <ele>22.8</ele>
        <time>2020-07-14T06:29:36Z</time>
      </trkpt>
      <trkpt lat="42.84024" lon="2.9155">
        <ele>23</ele>
        <time>2020-07-14T06:29:44Z</time>
      </trkpt>
      <trkpt lat="42.84031" lon="2.91547">
        <ele>23</ele>
        <time>2020-07-14T06:29:48Z</time>
      </trkpt>
      <trkpt lat="42.84036" lon="2.91544">
        <ele>23.4</ele>
        <time>2020-07-14T06:29:53Z</time>
      </trkpt>
      <trkpt lat="42.84046" lon="2.9155">
        <ele>24.2</ele>
        <time>2020-07-14T06:30:02Z</time>
      </trkpt>
      <trkpt lat="42.84055" lon="2.9154">
        <ele>25</ele>
        <time>2020-07-14T06:30:07Z</time>
      </trkpt>
      <trkpt lat="42.84077" lon="2.91516">
        <ele>26.8</ele>
        <time>2020-07-14T06:30:18Z</time>
      </trkpt>
      <trkpt lat="42.84086" lon="2.91529">
        <ele>28</ele>
        <time>2020-07-14T06:30:30Z</time>
      </trkpt>
      <trkpt lat="42.84192" lon="2.91474">
        <ele>48.6</ele>
        <time>2020-07-14T06:32:00Z</time>
      </trkpt>
      <trkpt lat="42.84222" lon="2.91458">
        <ele>54</ele>
        <time>2020-07-14T06:32:19Z</time>
      </trkpt>
      <trkpt lat="42.8422" lon="2.9146">
        <ele>54.6</ele>
        <time>2020-07-14T06:32:22Z</time>
      </trkpt>
      <trkpt lat="42.84198" lon="2.91519">
        <ele>59.6</ele>
        <time>2020-07-14T06:32:48Z</time>
      </trkpt>
      <trkpt lat="42.84237" lon="2.91565">
        <ele>60.2</ele>
        <time>2020-07-14T06:33:06Z</time>
      </trkpt>
      <trkpt lat="42.84288" lon="2.91594">
        <ele>62.4</ele>
        <time>2020-07-14T06:33:24Z</time>
      </trkpt>
      <trkpt lat="42.84342" lon="2.91617">
        <ele>63.4</ele>
        <time>2020-07-14T06:33:35Z</time>
      </trkpt>
      <trkpt lat="42.84368" lon="2.91659">
        <ele>63.8</ele>
        <time>2020-07-14T06:33:48Z</time>
      </trkpt>
      <trkpt lat="42.84367" lon="2.91682">
        <ele>63.8</ele>
        <time>2020-07-14T06:33:54Z</time>
      </trkpt>
      <trkpt lat="42.84348" lon="2.91702">
        <ele>63.8</ele>
        <time>2020-07-14T06:33:59Z</time>
      </trkpt>
      <trkpt lat="42.84341" lon="2.91707">
        <ele>63.6</ele>
        <time>2020-07-14T06:34:00Z</time>
      </trkpt>
      <trkpt lat="42.84287" lon="2.91728">
        <ele>62.6</ele>
        <time>2020-07-14T06:34:08Z</time>
      </trkpt>
      <trkpt lat="42.84264" lon="2.91743">
        <ele>62.2</ele>
        <time>2020-07-14T06:34:12Z</time>
      </trkpt>
      <trkpt lat="42.84254" lon="2.91771">
        <ele>60.8</ele>
        <time>2020-07-14T06:34:16Z</time>
      </trkpt>
      <trkpt lat="42.84234" lon="2.91841">
        <ele>56.4</ele>
        <time>2020-07-14T06:34:25Z</time>
      </trkpt>
      <trkpt lat="42.84224" lon="2.91864">
        <ele>53.8</ele>
        <time>2020-07-14T06:34:29Z</time>
      </trkpt>
      <trkpt lat="42.84204" lon="2.91867">
        <ele>51.8</ele>
        <time>2020-07-14T06:34:33Z</time>
      </trkpt>
      <trkpt lat="42.84172" lon="2.91921">
        <ele>41.8</ele>
        <time>2020-07-14T06:34:54Z</time>
      </trkpt>
      <trkpt lat="42.84173" lon="2.91924">
        <ele>41.4</ele>
        <time>2020-07-14T06:34:56Z</time>
      </trkpt>
      <trkpt lat="42.84177" lon="2.91924">
        <ele>40.6</ele>
        <time>2020-07-14T06:34:58Z</time>
      </trkpt>
      <trkpt lat="42.84197" lon="2.91921">
        <ele>38.8</ele>
        <time>2020-07-14T06:35:03Z</time>
      </trkpt>
      <trkpt lat="42.84215" lon="2.91925">
        <ele>37.8</ele>
        <time>2020-07-14T06:35:06Z</time>
      </trkpt>
      <trkpt lat="42.84236" lon="2.91921">
        <ele>36</ele>
        <time>2020-07-14T06:35:11Z</time>
      </trkpt>
      <trkpt lat="42.84263" lon="2.91984">
        <ele>31.6</ele>
        <time>2020-07-14T06:35:31Z</time>
      </trkpt>
      <trkpt lat="42.84309" lon="2.92022">
        <ele>30</ele>
        <time>2020-07-14T06:35:52Z</time>
      </trkpt>
      <trkpt lat="42.84361" lon="2.92049">
        <ele>30.8</ele>
        <time>2020-07-14T06:36:11Z</time>
      </trkpt>
      <trkpt lat="42.84365" lon="2.92056">
        <ele>30.6</ele>
        <time>2020-07-14T06:36:13Z</time>
      </trkpt>
      <trkpt lat="42.8438" lon="2.92095">
        <ele>30.4</ele>
        <time>2020-07-14T06:36:22Z</time>
      </trkpt>
      <trkpt lat="42.84384" lon="2.9212">
        <ele>30.4</ele>
        <time>2020-07-14T06:36:27Z</time>
      </trkpt>
      <trkpt lat="42.84391" lon="2.92147">
        <ele>30.4</ele>
        <time>2020-07-14T06:36:33Z</time>
      </trkpt>
      <trkpt lat="42.84432" lon="2.92192">
        <ele>29.2</ele>
        <time>2020-07-14T06:36:51Z</time>
      </trkpt>
      <trkpt lat="42.8445" lon="2.92218">
        <ele>28.4</ele>
        <time>2020-07-14T06:36:58Z</time>
      </trkpt>
      <trkpt lat="42.84486" lon="2.92226">
        <ele>26.6</ele>
        <time>2020-07-14T06:37:07Z</time>
      </trkpt>
      <trkpt lat="42.84495" lon="2.92219">
        <ele>26.2</ele>
        <time>2020-07-14T06:37:10Z</time>
      </trkpt>
      <trkpt lat="42.84528" lon="2.92229">
        <ele>24.4</ele>
        <time>2020-07-14T06:37:20Z</time>
      </trkpt>
      <trkpt lat="42.84529" lon="2.92263">
        <ele>23.4</ele>
        <time>2020-07-14T06:37:25Z</time>
      </trkpt>
      <trkpt lat="42.84532" lon="2.92288">
        <ele>22</ele>
        <time>2020-07-14T06:37:33Z</time>
      </trkpt>
      <trkpt lat="42.84533" lon="2.9229">
        <ele>18.6</ele>
        <time>2020-07-14T06:39:41Z</time>
      </trkpt>
      <trkpt lat="42.84555" lon="2.92292">
        <ele>18.2</ele>
        <time>2020-07-14T06:39:49Z</time>
      </trkpt>
      <trkpt lat="42.84609" lon="2.92277">
        <ele>18</ele>
        <time>2020-07-14T06:40:08Z</time>
      </trkpt>
      <trkpt lat="42.84665" lon="2.9227">
        <ele>18</ele>
        <time>2020-07-14T06:40:24Z</time>
      </trkpt>
      <trkpt lat="42.84721" lon="2.92261">
        <ele>18.2</ele>
        <time>2020-07-14T06:40:40Z</time>
      </trkpt>
      <trkpt lat="42.84773" lon="2.92239">
        <ele>19.2</ele>
        <time>2020-07-14T06:40:56Z</time>
      </trkpt>
      <trkpt lat="42.84827" lon="2.92242">
        <ele>20.4</ele>
        <time>2020-07-14T06:41:11Z</time>
      </trkpt>
      <trkpt lat="42.84856" lon="2.92237">
        <ele>20.2</ele>
        <time>2020-07-14T06:41:18Z</time>
      </trkpt>
      <trkpt lat="42.84883" lon="2.92223">
        <ele>19.6</ele>
        <time>2020-07-14T06:41:25Z</time>
      </trkpt>
      <trkpt lat="42.84888" lon="2.92193">
        <ele>19.4</ele>
        <time>2020-07-14T06:41:31Z</time>
      </trkpt>
      <trkpt lat="42.84904" lon="2.92123">
        <ele>18.8</ele>
        <time>2020-07-14T06:41:49Z</time>
      </trkpt>
      <trkpt lat="42.84931" lon="2.92056">
        <ele>20</ele>
        <time>2020-07-14T06:42:07Z</time>
      </trkpt>
      <trkpt lat="42.84963" lon="2.91996">
        <ele>21.6</ele>
        <time>2020-07-14T06:42:26Z</time>
      </trkpt>
      <trkpt lat="42.85004" lon="2.91947">
        <ele>24.8</ele>
        <time>2020-07-14T06:42:47Z</time>
      </trkpt>
      <trkpt lat="42.85037" lon="2.91886">
        <ele>28.6</ele>
        <time>2020-07-14T06:43:06Z</time>
      </trkpt>
      <trkpt lat="42.85055" lon="2.91814">
        <ele>30.6</ele>
        <time>2020-07-14T06:43:22Z</time>
      </trkpt>
      <trkpt lat="42.85045" lon="2.91793">
        <ele>30.4</ele>
        <time>2020-07-14T06:43:32Z</time>
      </trkpt>
      <trkpt lat="42.85043" lon="2.91796">
        <ele>29.8</ele>
        <time>2020-07-14T06:44:22Z</time>
      </trkpt>
      <trkpt lat="42.85039" lon="2.91865">
        <ele>28.6</ele>
        <time>2020-07-14T06:44:39Z</time>
      </trkpt>
      <trkpt lat="42.85036" lon="2.9187">
        <ele>28.4</ele>
        <time>2020-07-14T06:44:40Z</time>
      </trkpt>
      <trkpt lat="42.85019" lon="2.91912">
        <ele>27.8</ele>
        <time>2020-07-14T06:44:48Z</time>
      </trkpt>
      <trkpt lat="42.85015" lon="2.91923">
        <ele>27.8</ele>
        <time>2020-07-14T06:44:50Z</time>
      </trkpt>
      <trkpt lat="42.84974" lon="2.91976">
        <ele>27</ele>
        <time>2020-07-14T06:45:02Z</time>
      </trkpt>
      <trkpt lat="42.84947" lon="2.92006">
        <ele>26.6</ele>
        <time>2020-07-14T06:45:08Z</time>
      </trkpt>
      <trkpt lat="42.8492" lon="2.9207">
        <ele>25.8</ele>
        <time>2020-07-14T06:45:17Z</time>
      </trkpt>
      <trkpt lat="42.84905" lon="2.92109">
        <ele>25.4</ele>
        <time>2020-07-14T06:45:22Z</time>
      </trkpt>
      <trkpt lat="42.8488" lon="2.92163">
        <ele>24.8</ele>
        <time>2020-07-14T06:45:29Z</time>
      </trkpt>
      <trkpt lat="42.84876" lon="2.9221">
        <ele>24.2</ele>
        <time>2020-07-14T06:45:35Z</time>
      </trkpt>
      <trkpt lat="42.84874" lon="2.92227">
        <ele>24</ele>
        <time>2020-07-14T06:45:38Z</time>
      </trkpt>
      <trkpt lat="42.84853" lon="2.92221">
        <ele>23</ele>
        <time>2020-07-14T06:45:47Z</time>
      </trkpt>
      <trkpt lat="42.84847" lon="2.92146">
        <ele>21.8</ele>
        <time>2020-07-14T06:46:04Z</time>
      </trkpt>
      <trkpt lat="42.84846" lon="2.92073">
        <ele>22.4</ele>
        <time>2020-07-14T06:46:22Z</time>
      </trkpt>
      <trkpt lat="42.84818" lon="2.92007">
        <ele>24.4</ele>
        <time>2020-07-14T06:46:41Z</time>
      </trkpt>
      <trkpt lat="42.8478" lon="2.91954">
        <ele>27</ele>
        <time>2020-07-14T06:47:00Z</time>
      </trkpt>
      <trkpt lat="42.84768" lon="2.91882">
        <ele>28.6</ele>
        <time>2020-07-14T06:47:17Z</time>
      </trkpt>
      <trkpt lat="42.84774" lon="2.91809">
        <ele>30.2</ele>
        <time>2020-07-14T06:47:36Z</time>
      </trkpt>
      <trkpt lat="42.84757" lon="2.91736">
        <ele>32</ele>
        <time>2020-07-14T06:47:55Z</time>
      </trkpt>
      <trkpt lat="42.8476" lon="2.91663">
        <ele>34.4</ele>
        <time>2020-07-14T06:48:16Z</time>
      </trkpt>
      <trkpt lat="42.84798" lon="2.91605">
        <ele>35</ele>
        <time>2020-07-14T06:48:36Z</time>
      </trkpt>
      <trkpt lat="42.84824" lon="2.91539">
        <ele>36.6</ele>
        <time>2020-07-14T06:48:58Z</time>
      </trkpt>
      <trkpt lat="42.84854" lon="2.91477">
        <ele>38.2</ele>
        <time>2020-07-14T06:49:18Z</time>
      </trkpt>
      <trkpt lat="42.84884" lon="2.91414">
        <ele>41.6</ele>
        <time>2020-07-14T06:49:39Z</time>
      </trkpt>
      <trkpt lat="42.84866" lon="2.91346">
        <ele>44.6</ele>
        <time>2020-07-14T06:49:58Z</time>
      </trkpt>
      <trkpt lat="42.84833" lon="2.91288">
        <ele>44.8</ele>
        <time>2020-07-14T06:50:12Z</time>
      </trkpt>
      <trkpt lat="42.84826" lon="2.91212">
        <ele>45.2</ele>
        <time>2020-07-14T06:50:31Z</time>
      </trkpt>
      <trkpt lat="42.84806" lon="2.91141">
        <ele>46.6</ele>
        <time>2020-07-14T06:50:51Z</time>
      </trkpt>
      <trkpt lat="42.84783" lon="2.91071">
        <ele>49.8</ele>
        <time>2020-07-14T06:51:13Z</time>
      </trkpt>
      <trkpt lat="42.84757" lon="2.91005">
        <ele>51.8</ele>
        <time>2020-07-14T06:51:33Z</time>
      </trkpt>
      <trkpt lat="42.84725" lon="2.90945">
        <ele>54.2</ele>
        <time>2020-07-14T06:51:54Z</time>
      </trkpt>
      <trkpt lat="42.84675" lon="2.90915">
        <ele>55.4</ele>
        <time>2020-07-14T06:52:13Z</time>
      </trkpt>
      <trkpt lat="42.84631" lon="2.90868">
        <ele>55.4</ele>
        <time>2020-07-14T06:52:34Z</time>
      </trkpt>
      <trkpt lat="42.84593" lon="2.90814">
        <ele>56</ele>
        <time>2020-07-14T06:52:54Z</time>
      </trkpt>
      <trkpt lat="42.84555" lon="2.90758">
        <ele>58.8</ele>
        <time>2020-07-14T06:53:16Z</time>
      </trkpt>
      <trkpt lat="42.84508" lon="2.90718">
        <ele>59.6</ele>
        <time>2020-07-14T06:53:35Z</time>
      </trkpt>
      <trkpt lat="42.8446" lon="2.90679">
        <ele>59.6</ele>
        <time>2020-07-14T06:53:53Z</time>
      </trkpt>
      <trkpt lat="42.8442" lon="2.90632">
        <ele>61.2</ele>
        <time>2020-07-14T06:54:14Z</time>
      </trkpt>
      <trkpt lat="42.8439" lon="2.90573">
        <ele>65.6</ele>
        <time>2020-07-14T06:54:41Z</time>
      </trkpt>
      <trkpt lat="42.84344" lon="2.90541">
        <ele>67.8</ele>
        <time>2020-07-14T06:55:02Z</time>
      </trkpt>
      <trkpt lat="42.84301" lon="2.90496">
        <ele>70.2</ele>
        <time>2020-07-14T06:55:24Z</time>
      </trkpt>
      <trkpt lat="42.84294" lon="2.9049">
        <ele>70.6</ele>
        <time>2020-07-14T06:55:30Z</time>
      </trkpt>
      <trkpt lat="42.84287" lon="2.90491">
        <ele>71.4</ele>
        <time>2020-07-14T06:56:59Z</time>
      </trkpt>
      <trkpt lat="42.8428" lon="2.90496">
        <ele>71.4</ele>
        <time>2020-07-14T06:57:03Z</time>
      </trkpt>
      <trkpt lat="42.84233" lon="2.90532">
        <ele>74.6</ele>
        <time>2020-07-14T06:57:32Z</time>
      </trkpt>
      <trkpt lat="42.84228" lon="2.9053">
        <ele>75.2</ele>
        <time>2020-07-14T06:57:36Z</time>
      </trkpt>
      <trkpt lat="42.84228" lon="2.90457">
        <ele>79</ele>
        <time>2020-07-14T06:58:06Z</time>
      </trkpt>
      <trkpt lat="42.84246" lon="2.90424">
        <ele>80</ele>
        <time>2020-07-14T06:58:16Z</time>
      </trkpt>
      <trkpt lat="42.84266" lon="2.90356">
        <ele>81.6</ele>
        <time>2020-07-14T06:58:36Z</time>
      </trkpt>
      <trkpt lat="42.84272" lon="2.90283">
        <ele>83.6</ele>
        <time>2020-07-14T06:59:00Z</time>
      </trkpt>
      <trkpt lat="42.84273" lon="2.90245">
        <ele>86.8</ele>
        <time>2020-07-14T06:59:20Z</time>
      </trkpt>
      <trkpt lat="42.84272" lon="2.90241">
        <ele>87.2</ele>
        <time>2020-07-14T06:59:24Z</time>
      </trkpt>
      <trkpt lat="42.8427" lon="2.90178">
        <ele>93.8</ele>
        <time>2020-07-14T07:00:08Z</time>
      </trkpt>
      <trkpt lat="42.84265" lon="2.90082">
        <ele>116</ele>
        <time>2020-07-14T07:02:02Z</time>
      </trkpt>
      <trkpt lat="42.8427" lon="2.90079">
        <ele>116.6</ele>
        <time>2020-07-14T07:02:10Z</time>
      </trkpt>
      <trkpt lat="42.84273" lon="2.9007">
        <ele>117.2</ele>
        <time>2020-07-14T07:07:22Z</time>
      </trkpt>
      <trkpt lat="42.84287" lon="2.9">
        <ele>121</ele>
        <time>2020-07-14T07:07:50Z</time>
      </trkpt>
      <trkpt lat="42.84267" lon="2.89931">
        <ele>124</ele>
        <time>2020-07-14T07:08:14Z</time>
      </trkpt>
      <trkpt lat="42.84241" lon="2.89865">
        <ele>124</ele>
        <time>2020-07-14T07:08:35Z</time>
      </trkpt>
      <trkpt lat="42.84207" lon="2.89818">
        <ele>125.4</ele>
        <time>2020-07-14T07:09:02Z</time>
      </trkpt>
      <trkpt lat="42.84206" lon="2.89815">
        <ele>126</ele>
        <time>2020-07-14T07:10:03Z</time>
      </trkpt>
      <trkpt lat="42.84173" lon="2.89756">
        <ele>125</ele>
        <time>2020-07-14T07:10:25Z</time>
      </trkpt>
      <trkpt lat="42.84159" lon="2.89749">
        <ele>125.4</ele>
        <time>2020-07-14T07:10:43Z</time>
      </trkpt>
      <trkpt lat="42.84157" lon="2.89753">
        <ele>126.6</ele>
        <time>2020-07-14T07:11:26Z</time>
      </trkpt>
      <trkpt lat="42.84157" lon="2.89754">
        <ele>126.4</ele>
        <time>2020-07-14T07:11:28Z</time>
      </trkpt>
      <trkpt lat="42.84158" lon="2.89752">
        <ele>126</ele>
        <time>2020-07-14T07:12:12Z</time>
      </trkpt>
      <trkpt lat="42.84157" lon="2.89748">
        <ele>125.8</ele>
        <time>2020-07-14T07:12:15Z</time>
      </trkpt>
      <trkpt lat="42.84157" lon="2.8975">
        <ele>125.8</ele>
        <time>2020-07-14T07:12:16Z</time>
      </trkpt>
      <trkpt lat="42.84153" lon="2.8975">
        <ele>125.2</ele>
        <time>2020-07-14T07:13:03Z</time>
      </trkpt>
      <trkpt lat="42.84139" lon="2.89769">
        <ele>124</ele>
        <time>2020-07-14T07:13:12Z</time>
      </trkpt>
      <trkpt lat="42.84099" lon="2.89723">
        <ele>121.4</ele>
        <time>2020-07-14T07:13:40Z</time>
      </trkpt>
      <trkpt lat="42.84044" lon="2.89725">
        <ele>122.6</ele>
        <time>2020-07-14T07:14:10Z</time>
      </trkpt>
      <trkpt lat="42.84001" lon="2.89772">
        <ele>122.2</ele>
        <time>2020-07-14T07:14:32Z</time>
      </trkpt>
      <trkpt lat="42.84008" lon="2.89847">
        <ele>120.4</ele>
        <time>2020-07-14T07:14:46Z</time>
      </trkpt>
      <trkpt lat="42.84009" lon="2.8985">
        <ele>119.8</ele>
        <time>2020-07-14T07:14:49Z</time>
      </trkpt>
      <trkpt lat="42.84012" lon="2.89855">
        <ele>118.4</ele>
        <time>2020-07-14T07:15:01Z</time>
      </trkpt>
      <trkpt lat="42.84016" lon="2.89881">
        <ele>117</ele>
        <time>2020-07-14T07:15:06Z</time>
      </trkpt>
      <trkpt lat="42.84018" lon="2.89899">
        <ele>116.4</ele>
        <time>2020-07-14T07:15:08Z</time>
      </trkpt>
      <trkpt lat="42.84025" lon="2.89935">
        <ele>115.2</ele>
        <time>2020-07-14T07:15:12Z</time>
      </trkpt>
      <trkpt lat="42.84028" lon="2.89948">
        <ele>114.6</ele>
        <time>2020-07-14T07:15:14Z</time>
      </trkpt>
      <trkpt lat="42.84028" lon="2.89961">
        <ele>114</ele>
        <time>2020-07-14T07:15:16Z</time>
      </trkpt>
      <trkpt lat="42.84007" lon="2.89985">
        <ele>110.8</ele>
        <time>2020-07-14T07:15:26Z</time>
      </trkpt>
      <trkpt lat="42.83992" lon="2.89974">
        <ele>106.8</ele>
        <time>2020-07-14T07:15:45Z</time>
      </trkpt>
      <trkpt lat="42.83988" lon="2.8998">
        <ele>106</ele>
        <time>2020-07-14T07:15:51Z</time>
      </trkpt>
      <trkpt lat="42.83952" lon="2.8997">
        <ele>103.8</ele>
        <time>2020-07-14T07:16:06Z</time>
      </trkpt>
      <trkpt lat="42.83944" lon="2.89954">
        <ele>103</ele>
        <time>2020-07-14T07:16:09Z</time>
      </trkpt>
      <trkpt lat="42.83948" lon="2.89935">
        <ele>101.6</ele>
        <time>2020-07-14T07:16:13Z</time>
      </trkpt>
      <trkpt lat="42.83924" lon="2.8988">
        <ele>97.4</ele>
        <time>2020-07-14T07:16:29Z</time>
      </trkpt>
      <trkpt lat="42.83905" lon="2.89884">
        <ele>96.4</ele>
        <time>2020-07-14T07:16:34Z</time>
      </trkpt>
      <trkpt lat="42.83853" lon="2.89912">
        <ele>94.6</ele>
        <time>2020-07-14T07:16:45Z</time>
      </trkpt>
      <trkpt lat="42.83843" lon="2.8992">
        <ele>94.2</ele>
        <time>2020-07-14T07:16:47Z</time>
      </trkpt>
      <trkpt lat="42.83828" lon="2.89945">
        <ele>93.8</ele>
        <time>2020-07-14T07:16:51Z</time>
      </trkpt>
      <trkpt lat="42.83831" lon="2.89956">
        <ele>93.8</ele>
        <time>2020-07-14T07:16:53Z</time>
      </trkpt>
      <trkpt lat="42.83829" lon="2.89995">
        <ele>93.4</ele>
        <time>2020-07-14T07:16:59Z</time>
      </trkpt>
      <trkpt lat="42.83828" lon="2.90009">
        <ele>93.4</ele>
        <time>2020-07-14T07:17:01Z</time>
      </trkpt>
      <trkpt lat="42.83825" lon="2.90079">
        <ele>93.4</ele>
        <time>2020-07-14T07:17:09Z</time>
      </trkpt>
      <trkpt lat="42.83832" lon="2.90155">
        <ele>93</ele>
        <time>2020-07-14T07:17:18Z</time>
      </trkpt>
      <trkpt lat="42.83834" lon="2.90231">
        <ele>92</ele>
        <time>2020-07-14T07:17:27Z</time>
      </trkpt>
      <trkpt lat="42.83835" lon="2.90259">
        <ele>91.4</ele>
        <time>2020-07-14T07:17:30Z</time>
      </trkpt>
      <trkpt lat="42.83829" lon="2.9034">
        <ele>89.4</ele>
        <time>2020-07-14T07:17:39Z</time>
      </trkpt>
      <trkpt lat="42.83828" lon="2.90404">
        <ele>87.6</ele>
        <time>2020-07-14T07:17:46Z</time>
      </trkpt>
      <trkpt lat="42.83817" lon="2.90427">
        <ele>84</ele>
        <time>2020-07-14T07:17:56Z</time>
      </trkpt>
      <trkpt lat="42.83815" lon="2.90432">
        <ele>83.2</ele>
        <time>2020-07-14T07:17:58Z</time>
      </trkpt>
      <trkpt lat="42.8385" lon="2.90486">
        <ele>72.2</ele>
        <time>2020-07-14T07:18:20Z</time>
      </trkpt>
      <trkpt lat="42.83864" lon="2.90507">
        <ele>67.6</ele>
        <time>2020-07-14T07:18:28Z</time>
      </trkpt>
      <trkpt lat="42.83879" lon="2.90525">
        <ele>65.6</ele>
        <time>2020-07-14T07:18:32Z</time>
      </trkpt>
      <trkpt lat="42.83877" lon="2.90559">
        <ele>62.6</ele>
        <time>2020-07-14T07:18:38Z</time>
      </trkpt>
      <trkpt lat="42.83838" lon="2.90608">
        <ele>56.4</ele>
        <time>2020-07-14T07:18:52Z</time>
      </trkpt>
      <trkpt lat="42.83827" lon="2.90622">
        <ele>55.2</ele>
        <time>2020-07-14T07:18:55Z</time>
      </trkpt>
      <trkpt lat="42.83819" lon="2.90637">
        <ele>54.2</ele>
        <time>2020-07-14T07:18:58Z</time>
      </trkpt>
      <trkpt lat="42.83771" lon="2.90677">
        <ele>51</ele>
        <time>2020-07-14T07:19:08Z</time>
      </trkpt>
      <trkpt lat="42.83723" lon="2.90721">
        <ele>48.8</ele>
        <time>2020-07-14T07:19:17Z</time>
      </trkpt>
      <trkpt lat="42.83673" lon="2.90761">
        <ele>46.8</ele>
        <time>2020-07-14T07:19:26Z</time>
      </trkpt>
      <trkpt lat="42.83622" lon="2.90799">
        <ele>45</ele>
        <time>2020-07-14T07:19:34Z</time>
      </trkpt>
      <trkpt lat="42.83602" lon="2.90811">
        <ele>44</ele>
        <time>2020-07-14T07:19:38Z</time>
      </trkpt>
      <trkpt lat="42.83585" lon="2.90825">
        <ele>41.6</ele>
        <time>2020-07-14T07:19:49Z</time>
      </trkpt>
      <trkpt lat="42.83585" lon="2.90825">
        <ele>41.2</ele>
        <time>2020-07-14T07:19:52Z</time>
      </trkpt>
      <trkpt lat="42.83577" lon="2.90818">
        <ele>40.6</ele>
        <time>2020-07-14T07:19:56Z</time>
      </trkpt>
      <trkpt lat="42.83569" lon="2.90795">
        <ele>39.2</ele>
        <time>2020-07-14T07:20:18Z</time>
      </trkpt>
      <trkpt lat="42.83572" lon="2.90723">
        <ele>41.6</ele>
        <time>2020-07-14T07:20:49Z</time>
      </trkpt>
      <trkpt lat="42.83573" lon="2.90721">
        <ele>41.8</ele>
        <time>2020-07-14T07:20:50Z</time>
      </trkpt>
      <trkpt lat="42.83597" lon="2.90655">
        <ele>47.2</ele>
        <time>2020-07-14T07:21:11Z</time>
      </trkpt>
      <trkpt lat="42.83611" lon="2.90622">
        <ele>51.6</ele>
        <time>2020-07-14T07:21:27Z</time>
      </trkpt>
      <trkpt lat="42.83619" lon="2.90609">
        <ele>53.4</ele>
        <time>2020-07-14T07:21:33Z</time>
      </trkpt>
      <trkpt lat="42.83633" lon="2.90538">
        <ele>59.6</ele>
        <time>2020-07-14T07:22:00Z</time>
      </trkpt>
      <trkpt lat="42.83631" lon="2.90463">
        <ele>60.4</ele>
        <time>2020-07-14T07:22:18Z</time>
      </trkpt>
      <trkpt lat="42.83627" lon="2.90461">
        <ele>60.4</ele>
        <time>2020-07-14T07:22:20Z</time>
      </trkpt>
      <trkpt lat="42.83616" lon="2.90457">
        <ele>60.2</ele>
        <time>2020-07-14T07:22:24Z</time>
      </trkpt>
      <trkpt lat="42.83565" lon="2.90493">
        <ele>59.4</ele>
        <time>2020-07-14T07:22:38Z</time>
      </trkpt>
      <trkpt lat="42.83524" lon="2.90543">
        <ele>58.8</ele>
        <time>2020-07-14T07:22:46Z</time>
      </trkpt>
      <trkpt lat="42.83479" lon="2.90592">
        <ele>58.4</ele>
        <time>2020-07-14T07:22:53Z</time>
      </trkpt>
      <trkpt lat="42.83432" lon="2.90628">
        <ele>57.8</ele>
        <time>2020-07-14T07:23:00Z</time>
      </trkpt>
      <trkpt lat="42.83382" lon="2.90669">
        <ele>57.8</ele>
        <time>2020-07-14T07:23:10Z</time>
      </trkpt>
      <trkpt lat="42.83371" lon="2.90684">
        <ele>57.8</ele>
        <time>2020-07-14T07:23:13Z</time>
      </trkpt>
      <trkpt lat="42.83365" lon="2.90704">
        <ele>58.2</ele>
        <time>2020-07-14T07:23:20Z</time>
      </trkpt>
      <trkpt lat="42.83372" lon="2.90728">
        <ele>55.6</ele>
        <time>2020-07-14T07:24:10Z</time>
      </trkpt>
      <trkpt lat="42.83349" lon="2.90766">
        <ele>50.6</ele>
        <time>2020-07-14T07:24:20Z</time>
      </trkpt>
      <trkpt lat="42.83331" lon="2.90755">
        <ele>48.2</ele>
        <time>2020-07-14T07:24:26Z</time>
      </trkpt>
      <trkpt lat="42.83309" lon="2.90687">
        <ele>42.2</ele>
        <time>2020-07-14T07:24:43Z</time>
      </trkpt>
      <trkpt lat="42.83281" lon="2.90638">
        <ele>38.8</ele>
        <time>2020-07-14T07:25:01Z</time>
      </trkpt>
      <trkpt lat="42.83283" lon="2.90623">
        <ele>38.8</ele>
        <time>2020-07-14T07:25:08Z</time>
      </trkpt>
      <trkpt lat="42.83243" lon="2.90589">
        <ele>38</ele>
        <time>2020-07-14T07:25:22Z</time>
      </trkpt>
      <trkpt lat="42.83224" lon="2.90589">
        <ele>37.2</ele>
        <time>2020-07-14T07:25:26Z</time>
      </trkpt>
      <trkpt lat="42.83214" lon="2.90593">
        <ele>37</ele>
        <time>2020-07-14T07:25:28Z</time>
      </trkpt>
      <trkpt lat="42.8319" lon="2.90614">
        <ele>36.2</ele>
        <time>2020-07-14T07:25:35Z</time>
      </trkpt>
      <trkpt lat="42.83184" lon="2.90609">
        <ele>36.2</ele>
        <time>2020-07-14T07:25:37Z</time>
      </trkpt>
      <trkpt lat="42.83157" lon="2.90543">
        <ele>36</ele>
        <time>2020-07-14T07:25:54Z</time>
      </trkpt>
      <trkpt lat="42.83132" lon="2.90473">
        <ele>36.6</ele>
        <time>2020-07-14T07:26:09Z</time>
      </trkpt>
      <trkpt lat="42.83109" lon="2.90404">
        <ele>37.4</ele>
        <time>2020-07-14T07:26:26Z</time>
      </trkpt>
      <trkpt lat="42.83111" lon="2.9033">
        <ele>37.2</ele>
        <time>2020-07-14T07:26:41Z</time>
      </trkpt>
      <trkpt lat="42.83117" lon="2.90255">
        <ele>37.6</ele>
        <time>2020-07-14T07:26:58Z</time>
      </trkpt>
      <trkpt lat="42.83119" lon="2.90179">
        <ele>39.8</ele>
        <time>2020-07-14T07:27:15Z</time>
      </trkpt>
      <trkpt lat="42.83095" lon="2.90112">
        <ele>43.4</ele>
        <time>2020-07-14T07:27:32Z</time>
      </trkpt>
      <trkpt lat="42.8308" lon="2.90038">
        <ele>45.4</ele>
        <time>2020-07-14T07:27:46Z</time>
      </trkpt>
      <trkpt lat="42.83047" lon="2.89976">
        <ele>46</ele>
        <time>2020-07-14T07:28:00Z</time>
      </trkpt>
      <trkpt lat="42.83013" lon="2.89918">
        <ele>45.6</ele>
        <time>2020-07-14T07:28:15Z</time>
      </trkpt>
      <trkpt lat="42.83001" lon="2.89846">
        <ele>44.8</ele>
        <time>2020-07-14T07:28:29Z</time>
      </trkpt>
      <trkpt lat="42.82995" lon="2.89771">
        <ele>44.2</ele>
        <time>2020-07-14T07:28:46Z</time>
      </trkpt>
      <trkpt lat="42.83032" lon="2.89718">
        <ele>44.2</ele>
        <time>2020-07-14T07:29:01Z</time>
      </trkpt>
      <trkpt lat="42.83064" lon="2.89681">
        <ele>45</ele>
        <time>2020-07-14T07:29:21Z</time>
      </trkpt>
      <trkpt lat="42.83063" lon="2.89677">
        <ele>45.4</ele>
        <time>2020-07-14T07:29:32Z</time>
      </trkpt>
      <trkpt lat="42.83057" lon="2.89645">
        <ele>45.4</ele>
        <time>2020-07-14T07:29:45Z</time>
      </trkpt>
      <trkpt lat="42.83048" lon="2.89636">
        <ele>45.2</ele>
        <time>2020-07-14T07:29:50Z</time>
      </trkpt>
      <trkpt lat="42.83011" lon="2.89583">
        <ele>47.6</ele>
        <time>2020-07-14T07:30:27Z</time>
      </trkpt>
      <trkpt lat="42.82993" lon="2.89568">
        <ele>50.4</ele>
        <time>2020-07-14T07:30:44Z</time>
      </trkpt>
      <trkpt lat="42.82951" lon="2.89613">
        <ele>50.6</ele>
        <time>2020-07-14T07:30:58Z</time>
      </trkpt>
      <trkpt lat="42.82904" lon="2.89657">
        <ele>49.6</ele>
        <time>2020-07-14T07:31:07Z</time>
      </trkpt>
      <trkpt lat="42.82865" lon="2.89604">
        <ele>47.8</ele>
        <time>2020-07-14T07:31:34Z</time>
      </trkpt>
      <trkpt lat="42.82839" lon="2.89535">
        <ele>48.2</ele>
        <time>2020-07-14T07:31:54Z</time>
      </trkpt>
      <trkpt lat="42.82832" lon="2.89461">
        <ele>49.4</ele>
        <time>2020-07-14T07:32:12Z</time>
      </trkpt>
      <trkpt lat="42.82821" lon="2.89387">
        <ele>51.2</ele>
        <time>2020-07-14T07:32:29Z</time>
      </trkpt>
      <trkpt lat="42.82812" lon="2.89311">
        <ele>52.8</ele>
        <time>2020-07-14T07:32:44Z</time>
      </trkpt>
      <trkpt lat="42.82798" lon="2.89238">
        <ele>53.2</ele>
        <time>2020-07-14T07:32:58Z</time>
      </trkpt>
      <trkpt lat="42.82794" lon="2.89165">
        <ele>53</ele>
        <time>2020-07-14T07:33:14Z</time>
      </trkpt>
      <trkpt lat="42.82801" lon="2.89159">
        <ele>53</ele>
        <time>2020-07-14T07:33:17Z</time>
      </trkpt>
      <trkpt lat="42.82844" lon="2.89112">
        <ele>53.6</ele>
        <time>2020-07-14T07:33:36Z</time>
      </trkpt>
      <trkpt lat="42.82887" lon="2.89065">
        <ele>54.8</ele>
        <time>2020-07-14T07:34:01Z</time>
      </trkpt>
      <trkpt lat="42.82929" lon="2.89016">
        <ele>57.2</ele>
        <time>2020-07-14T07:34:32Z</time>
      </trkpt>
      <trkpt lat="42.82967" lon="2.88964">
        <ele>58.6</ele>
        <time>2020-07-14T07:34:52Z</time>
      </trkpt>
      <trkpt lat="42.83001" lon="2.8892">
        <ele>60.8</ele>
        <time>2020-07-14T07:35:11Z</time>
      </trkpt>
      <trkpt lat="42.82994" lon="2.88917">
        <ele>63.2</ele>
        <time>2020-07-14T07:41:51Z</time>
      </trkpt>
      <trkpt lat="42.82983" lon="2.88923">
        <ele>63.4</ele>
        <time>2020-07-14T07:41:56Z</time>
      </trkpt>
      <trkpt lat="42.82954" lon="2.8894">
        <ele>62.6</ele>
        <time>2020-07-14T07:42:05Z</time>
      </trkpt>
      <trkpt lat="42.82901" lon="2.88924">
        <ele>61</ele>
        <time>2020-07-14T07:42:17Z</time>
      </trkpt>
      <trkpt lat="42.82888" lon="2.88919">
        <ele>60.4</ele>
        <time>2020-07-14T07:42:20Z</time>
      </trkpt>
      <trkpt lat="42.82834" lon="2.88902">
        <ele>59</ele>
        <time>2020-07-14T07:42:28Z</time>
      </trkpt>
      <trkpt lat="42.8278" lon="2.88879">
        <ele>57</ele>
        <time>2020-07-14T07:42:35Z</time>
      </trkpt>
      <trkpt lat="42.82741" lon="2.88863">
        <ele>55.2</ele>
        <time>2020-07-14T07:42:41Z</time>
      </trkpt>
      <trkpt lat="42.82725" lon="2.88831">
        <ele>53.8</ele>
        <time>2020-07-14T07:42:46Z</time>
      </trkpt>
      <trkpt lat="42.82716" lon="2.88802">
        <ele>52.4</ele>
        <time>2020-07-14T07:42:52Z</time>
      </trkpt>
      <trkpt lat="42.82705" lon="2.88808">
        <ele>51</ele>
        <time>2020-07-14T07:42:57Z</time>
      </trkpt>
      <trkpt lat="42.82688" lon="2.88813">
        <ele>48.8</ele>
        <time>2020-07-14T07:43:08Z</time>
      </trkpt>
      <trkpt lat="42.82648" lon="2.88764">
        <ele>49.2</ele>
        <time>2020-07-14T07:43:35Z</time>
      </trkpt>
      <trkpt lat="42.82591" lon="2.8875">
        <ele>51.4</ele>
        <time>2020-07-14T07:43:50Z</time>
      </trkpt>
      <trkpt lat="42.82584" lon="2.88743">
        <ele>51.4</ele>
        <time>2020-07-14T07:43:52Z</time>
      </trkpt>
      <trkpt lat="42.82558" lon="2.88709">
        <ele>52</ele>
        <time>2020-07-14T07:44:00Z</time>
      </trkpt>
      <trkpt lat="42.82546" lon="2.88704">
        <ele>51.8</ele>
        <time>2020-07-14T07:44:03Z</time>
      </trkpt>
      <trkpt lat="42.82524" lon="2.88769">
        <ele>52.6</ele>
        <time>2020-07-14T07:44:17Z</time>
      </trkpt>
      <trkpt lat="42.82509" lon="2.88797">
        <ele>51.6</ele>
        <time>2020-07-14T07:44:36Z</time>
      </trkpt>
      <trkpt lat="42.82505" lon="2.88802">
        <ele>50.6</ele>
        <time>2020-07-14T07:44:49Z</time>
      </trkpt>
      <trkpt lat="42.82505" lon="2.88812">
        <ele>48.8</ele>
        <time>2020-07-14T07:44:57Z</time>
      </trkpt>
      <trkpt lat="42.82517" lon="2.88821">
        <ele>44</ele>
        <time>2020-07-14T07:46:49Z</time>
      </trkpt>
      <trkpt lat="42.82511" lon="2.88831">
        <ele>43.6</ele>
        <time>2020-07-14T07:46:53Z</time>
      </trkpt>
      <trkpt lat="42.82492" lon="2.88903">
        <ele>42.4</ele>
        <time>2020-07-14T07:47:13Z</time>
      </trkpt>
      <trkpt lat="42.82477" lon="2.88952">
        <ele>42</ele>
        <time>2020-07-14T07:47:23Z</time>
      </trkpt>
      <trkpt lat="42.82479" lon="2.88965">
        <ele>41.8</ele>
        <time>2020-07-14T07:47:27Z</time>
      </trkpt>
      <trkpt lat="42.8251" lon="2.88957">
        <ele>41.8</ele>
        <time>2020-07-14T07:47:42Z</time>
      </trkpt>
      <trkpt lat="42.82513" lon="2.88952">
        <ele>42</ele>
        <time>2020-07-14T07:47:47Z</time>
      </trkpt>
      <trkpt lat="42.82538" lon="2.88915">
        <ele>43</ele>
        <time>2020-07-14T07:48:04Z</time>
      </trkpt>
      <trkpt lat="42.8254" lon="2.88916">
        <ele>43.6</ele>
        <time>2020-07-14T07:48:29Z</time>
      </trkpt>
      <trkpt lat="42.82547" lon="2.88925">
        <ele>43.2</ele>
        <time>2020-07-14T07:48:35Z</time>
      </trkpt>
      <trkpt lat="42.82567" lon="2.88954">
        <ele>44.6</ele>
        <time>2020-07-14T07:48:52Z</time>
      </trkpt>
      <trkpt lat="42.82572" lon="2.88949">
        <ele>45.8</ele>
        <time>2020-07-14T07:49:17Z</time>
      </trkpt>
      <trkpt lat="42.82605" lon="2.88923">
        <ele>47</ele>
        <time>2020-07-14T07:49:34Z</time>
      </trkpt>
      <trkpt lat="42.82617" lon="2.88933">
        <ele>47.4</ele>
        <time>2020-07-14T07:49:40Z</time>
      </trkpt>
      <trkpt lat="42.82638" lon="2.88956">
        <ele>48</ele>
        <time>2020-07-14T07:49:51Z</time>
      </trkpt>
      <trkpt lat="42.82624" lon="2.89014">
        <ele>48</ele>
        <time>2020-07-14T07:50:02Z</time>
      </trkpt>
      <trkpt lat="42.8261" lon="2.89086">
        <ele>48</ele>
        <time>2020-07-14T07:50:14Z</time>
      </trkpt>
      <trkpt lat="42.82581" lon="2.89155">
        <ele>47.6</ele>
        <time>2020-07-14T07:50:25Z</time>
      </trkpt>
      <trkpt lat="42.82564" lon="2.89194">
        <ele>47.2</ele>
        <time>2020-07-14T07:50:32Z</time>
      </trkpt>
      <trkpt lat="42.82532" lon="2.89233">
        <ele>46.6</ele>
        <time>2020-07-14T07:50:40Z</time>
      </trkpt>
      <trkpt lat="42.82525" lon="2.8926">
        <ele>46.4</ele>
        <time>2020-07-14T07:50:44Z</time>
      </trkpt>
      <trkpt lat="42.82517" lon="2.89334">
        <ele>45.4</ele>
        <time>2020-07-14T07:50:54Z</time>
      </trkpt>
      <trkpt lat="42.82522" lon="2.89412">
        <ele>43.6</ele>
        <time>2020-07-14T07:51:05Z</time>
      </trkpt>
      <trkpt lat="42.82523" lon="2.89448">
        <ele>42.8</ele>
        <time>2020-07-14T07:51:10Z</time>
      </trkpt>
      <trkpt lat="42.82508" lon="2.89524">
        <ele>41.2</ele>
        <time>2020-07-14T07:51:21Z</time>
      </trkpt>
      <trkpt lat="42.82485" lon="2.89597">
        <ele>40</ele>
        <time>2020-07-14T07:51:30Z</time>
      </trkpt>
      <trkpt lat="42.82477" lon="2.89614">
        <ele>39.8</ele>
        <time>2020-07-14T07:51:32Z</time>
      </trkpt>
      <trkpt lat="42.82457" lon="2.89655">
        <ele>39</ele>
        <time>2020-07-14T07:51:37Z</time>
      </trkpt>
      <trkpt lat="42.82447" lon="2.89684">
        <ele>38.4</ele>
        <time>2020-07-14T07:51:41Z</time>
      </trkpt>
      <trkpt lat="42.82446" lon="2.8969">
        <ele>38.2</ele>
        <time>2020-07-14T07:51:45Z</time>
      </trkpt>
      <trkpt lat="42.82444" lon="2.8969">
        <ele>37</ele>
        <time>2020-07-14T07:52:05Z</time>
      </trkpt>
      <trkpt lat="42.82433" lon="2.89674">
        <ele>37</ele>
        <time>2020-07-14T07:52:11Z</time>
      </trkpt>
      <trkpt lat="42.82396" lon="2.89617">
        <ele>39</ele>
        <time>2020-07-14T07:52:27Z</time>
      </trkpt>
      <trkpt lat="42.82356" lon="2.89563">
        <ele>39.4</ele>
        <time>2020-07-14T07:52:43Z</time>
      </trkpt>
      <trkpt lat="42.82333" lon="2.89494">
        <ele>39</ele>
        <time>2020-07-14T07:52:57Z</time>
      </trkpt>
      <trkpt lat="42.82331" lon="2.89421">
        <ele>38.2</ele>
        <time>2020-07-14T07:53:11Z</time>
      </trkpt>
      <trkpt lat="42.82331" lon="2.89343">
        <ele>38.6</ele>
        <time>2020-07-14T07:53:26Z</time>
      </trkpt>
      <trkpt lat="42.82331" lon="2.89266">
        <ele>39.6</ele>
        <time>2020-07-14T07:53:41Z</time>
      </trkpt>
      <trkpt lat="42.82306" lon="2.89199">
        <ele>41.4</ele>
        <time>2020-07-14T07:53:57Z</time>
      </trkpt>
      <trkpt lat="42.82279" lon="2.8916">
        <ele>42</ele>
        <time>2020-07-14T07:54:09Z</time>
      </trkpt>
      <trkpt lat="42.82256" lon="2.89135">
        <ele>41.8</ele>
        <time>2020-07-14T07:54:16Z</time>
      </trkpt>
      <trkpt lat="42.82248" lon="2.89126">
        <ele>41.8</ele>
        <time>2020-07-14T07:54:18Z</time>
      </trkpt>
      <trkpt lat="42.82237" lon="2.89117">
        <ele>41.6</ele>
        <time>2020-07-14T07:54:21Z</time>
      </trkpt>
      <trkpt lat="42.8222" lon="2.89104">
        <ele>41.4</ele>
        <time>2020-07-14T07:54:25Z</time>
      </trkpt>
      <trkpt lat="42.82204" lon="2.89094">
        <ele>41</ele>
        <time>2020-07-14T07:54:29Z</time>
      </trkpt>
      <trkpt lat="42.82188" lon="2.89083">
        <ele>40.8</ele>
        <time>2020-07-14T07:54:33Z</time>
      </trkpt>
      <trkpt lat="42.82139" lon="2.89047">
        <ele>40.4</ele>
        <time>2020-07-14T07:54:46Z</time>
      </trkpt>
      <trkpt lat="42.821" lon="2.89031">
        <ele>40.4</ele>
        <time>2020-07-14T07:54:55Z</time>
      </trkpt>
      <trkpt lat="42.8208" lon="2.89044">
        <ele>40.4</ele>
        <time>2020-07-14T07:55:00Z</time>
      </trkpt>
      <trkpt lat="42.82052" lon="2.89111">
        <ele>40.4</ele>
        <time>2020-07-14T07:55:11Z</time>
      </trkpt>
      <trkpt lat="42.8202" lon="2.8918">
        <ele>40.4</ele>
        <time>2020-07-14T07:55:20Z</time>
      </trkpt>
      <trkpt lat="42.81988" lon="2.8925">
        <ele>40.4</ele>
        <time>2020-07-14T07:55:28Z</time>
      </trkpt>
      <trkpt lat="42.81958" lon="2.89314">
        <ele>40.2</ele>
        <time>2020-07-14T07:55:35Z</time>
      </trkpt>
      <trkpt lat="42.81926" lon="2.8938">
        <ele>40</ele>
        <time>2020-07-14T07:55:42Z</time>
      </trkpt>
      <trkpt lat="42.81894" lon="2.8945">
        <ele>39.8</ele>
        <time>2020-07-14T07:55:49Z</time>
      </trkpt>
      <trkpt lat="42.81861" lon="2.89523">
        <ele>39.2</ele>
        <time>2020-07-14T07:55:56Z</time>
      </trkpt>
      <trkpt lat="42.8183" lon="2.89592">
        <ele>38.4</ele>
        <time>2020-07-14T07:56:03Z</time>
      </trkpt>
      <trkpt lat="42.818" lon="2.89658">
        <ele>37.4</ele>
        <time>2020-07-14T07:56:10Z</time>
      </trkpt>
      <trkpt lat="42.8177" lon="2.89725">
        <ele>36.2</ele>
        <time>2020-07-14T07:56:17Z</time>
      </trkpt>
      <trkpt lat="42.81739" lon="2.89791">
        <ele>35.2</ele>
        <time>2020-07-14T07:56:24Z</time>
      </trkpt>
      <trkpt lat="42.81707" lon="2.89858">
        <ele>34.4</ele>
        <time>2020-07-14T07:56:31Z</time>
      </trkpt>
      <trkpt lat="42.81675" lon="2.89929">
        <ele>33.6</ele>
        <time>2020-07-14T07:56:38Z</time>
      </trkpt>
      <trkpt lat="42.81643" lon="2.9">
        <ele>32.6</ele>
        <time>2020-07-14T07:56:45Z</time>
      </trkpt>
      <trkpt lat="42.81611" lon="2.9007">
        <ele>31.6</ele>
        <time>2020-07-14T07:56:52Z</time>
      </trkpt>
      <trkpt lat="42.81582" lon="2.90139">
        <ele>30.6</ele>
        <time>2020-07-14T07:57:00Z</time>
      </trkpt>
      <trkpt lat="42.81584" lon="2.90173">
        <ele>29.8</ele>
        <time>2020-07-14T07:57:05Z</time>
      </trkpt>
      <trkpt lat="42.81591" lon="2.90196">
        <ele>29.4</ele>
        <time>2020-07-14T07:57:09Z</time>
      </trkpt>
      <trkpt lat="42.81559" lon="2.90261">
        <ele>29.2</ele>
        <time>2020-07-14T07:57:21Z</time>
      </trkpt>
      <trkpt lat="42.81556" lon="2.90264">
        <ele>29.4</ele>
        <time>2020-07-14T07:57:22Z</time>
      </trkpt>
      <trkpt lat="42.81528" lon="2.90269">
        <ele>29.8</ele>
        <time>2020-07-14T07:57:29Z</time>
      </trkpt>
      <trkpt lat="42.81514" lon="2.9028">
        <ele>30</ele>
        <time>2020-07-14T07:57:33Z</time>
      </trkpt>
      <trkpt lat="42.81479" lon="2.90339">
        <ele>30.8</ele>
        <time>2020-07-14T07:57:44Z</time>
      </trkpt>
      <trkpt lat="42.81448" lon="2.904">
        <ele>30.8</ele>
        <time>2020-07-14T07:57:54Z</time>
      </trkpt>
      <trkpt lat="42.81416" lon="2.90469">
        <ele>30.8</ele>
        <time>2020-07-14T07:58:04Z</time>
      </trkpt>
      <trkpt lat="42.81386" lon="2.90535">
        <ele>30.6</ele>
        <time>2020-07-14T07:58:14Z</time>
      </trkpt>
      <trkpt lat="42.81374" lon="2.90558">
        <ele>30.2</ele>
        <time>2020-07-14T07:58:18Z</time>
      </trkpt>
      <trkpt lat="42.81346" lon="2.9056">
        <ele>29.2</ele>
        <time>2020-07-14T07:58:24Z</time>
      </trkpt>
      <trkpt lat="42.81295" lon="2.90535">
        <ele>27.4</ele>
        <time>2020-07-14T07:58:33Z</time>
      </trkpt>
      <trkpt lat="42.81242" lon="2.90511">
        <ele>25.2</ele>
        <time>2020-07-14T07:58:43Z</time>
      </trkpt>
      <trkpt lat="42.81188" lon="2.90481">
        <ele>23.2</ele>
        <time>2020-07-14T07:58:55Z</time>
      </trkpt>
      <trkpt lat="42.81134" lon="2.90454">
        <ele>21.8</ele>
        <time>2020-07-14T07:59:06Z</time>
      </trkpt>
      <trkpt lat="42.81095" lon="2.90431">
        <ele>21</ele>
        <time>2020-07-14T07:59:14Z</time>
      </trkpt>
      <trkpt lat="42.81061" lon="2.90413">
        <ele>20.4</ele>
        <time>2020-07-14T07:59:21Z</time>
      </trkpt>
      <trkpt lat="42.81042" lon="2.90401">
        <ele>20</ele>
        <time>2020-07-14T07:59:25Z</time>
      </trkpt>
      <trkpt lat="42.80991" lon="2.90371">
        <ele>19.2</ele>
        <time>2020-07-14T07:59:36Z</time>
      </trkpt>
      <trkpt lat="42.80978" lon="2.90364">
        <ele>19</ele>
        <time>2020-07-14T07:59:39Z</time>
      </trkpt>
      <trkpt lat="42.80956" lon="2.90352">
        <ele>18.8</ele>
        <time>2020-07-14T07:59:44Z</time>
      </trkpt>
      <trkpt lat="42.80905" lon="2.90314">
        <ele>18.8</ele>
        <time>2020-07-14T07:59:56Z</time>
      </trkpt>
      <trkpt lat="42.80876" lon="2.90293">
        <ele>19</ele>
        <time>2020-07-14T08:00:03Z</time>
      </trkpt>
      <trkpt lat="42.80825" lon="2.90255">
        <ele>19.6</ele>
        <time>2020-07-14T08:00:15Z</time>
      </trkpt>
      <trkpt lat="42.80776" lon="2.90217">
        <ele>20.8</ele>
        <time>2020-07-14T08:00:26Z</time>
      </trkpt>
      <trkpt lat="42.80771" lon="2.90215">
        <ele>20.8</ele>
        <time>2020-07-14T08:00:27Z</time>
      </trkpt>
      <trkpt lat="42.80733" lon="2.90196">
        <ele>21.6</ele>
        <time>2020-07-14T08:00:35Z</time>
      </trkpt>
      <trkpt lat="42.80679" lon="2.90164">
        <ele>22.8</ele>
        <time>2020-07-14T08:00:47Z</time>
      </trkpt>
      <trkpt lat="42.80626" lon="2.90128">
        <ele>23.8</ele>
        <time>2020-07-14T08:00:59Z</time>
      </trkpt>
      <trkpt lat="42.80576" lon="2.90093">
        <ele>25</ele>
        <time>2020-07-14T08:01:10Z</time>
      </trkpt>
      <trkpt lat="42.80528" lon="2.9006">
        <ele>26</ele>
        <time>2020-07-14T08:01:21Z</time>
      </trkpt>
      <trkpt lat="42.80503" lon="2.90037">
        <ele>26.4</ele>
        <time>2020-07-14T08:01:27Z</time>
      </trkpt>
      <trkpt lat="42.80502" lon="2.90016">
        <ele>26.4</ele>
        <time>2020-07-14T08:01:31Z</time>
      </trkpt>
      <trkpt lat="42.80456" lon="2.89977">
        <ele>26.8</ele>
        <time>2020-07-14T08:01:45Z</time>
      </trkpt>
      <trkpt lat="42.80429" lon="2.89962">
        <ele>27</ele>
        <time>2020-07-14T08:01:51Z</time>
      </trkpt>
      <trkpt lat="42.80408" lon="2.89948">
        <ele>27.2</ele>
        <time>2020-07-14T08:01:56Z</time>
      </trkpt>
      <trkpt lat="42.80393" lon="2.899">
        <ele>29</ele>
        <time>2020-07-14T08:02:12Z</time>
      </trkpt>
      <trkpt lat="42.804" lon="2.89873">
        <ele>29.6</ele>
        <time>2020-07-14T08:02:20Z</time>
      </trkpt>
      <trkpt lat="42.80396" lon="2.89861">
        <ele>30.2</ele>
        <time>2020-07-14T08:02:27Z</time>
      </trkpt>
      <trkpt lat="42.80391" lon="2.8986">
        <ele>31</ele>
        <time>2020-07-14T08:04:36Z</time>
      </trkpt>
      <trkpt lat="42.80358" lon="2.89914">
        <ele>28.8</ele>
        <time>2020-07-14T08:04:57Z</time>
      </trkpt>
      <trkpt lat="42.80332" lon="2.8998">
        <ele>30.2</ele>
        <time>2020-07-14T08:05:13Z</time>
      </trkpt>
      <trkpt lat="42.80331" lon="2.89985">
        <ele>30.4</ele>
        <time>2020-07-14T08:05:14Z</time>
      </trkpt>
      <trkpt lat="42.80308" lon="2.90053">
        <ele>31.8</ele>
        <time>2020-07-14T08:05:27Z</time>
      </trkpt>
      <trkpt lat="42.80283" lon="2.90119">
        <ele>32</ele>
        <time>2020-07-14T08:05:36Z</time>
      </trkpt>
      <trkpt lat="42.80256" lon="2.90187">
        <ele>31.6</ele>
        <time>2020-07-14T08:05:43Z</time>
      </trkpt>
      <trkpt lat="42.80253" lon="2.90198">
        <ele>31.4</ele>
        <time>2020-07-14T08:05:44Z</time>
      </trkpt>
      <trkpt lat="42.80227" lon="2.90268">
        <ele>30.4</ele>
        <time>2020-07-14T08:05:51Z</time>
      </trkpt>
      <trkpt lat="42.80205" lon="2.90324">
        <ele>28.6</ele>
        <time>2020-07-14T08:06:02Z</time>
      </trkpt>
      <trkpt lat="42.80207" lon="2.90333">
        <ele>25</ele>
        <time>2020-07-14T08:13:11Z</time>
      </trkpt>
      <trkpt lat="42.80191" lon="2.90406">
        <ele>22.6</ele>
        <time>2020-07-14T08:13:26Z</time>
      </trkpt>
      <trkpt lat="42.80172" lon="2.90475">
        <ele>20.4</ele>
        <time>2020-07-14T08:13:36Z</time>
      </trkpt>
      <trkpt lat="42.80146" lon="2.9054">
        <ele>16.6</ele>
        <time>2020-07-14T08:13:46Z</time>
      </trkpt>
      <trkpt lat="42.80119" lon="2.90612">
        <ele>11.6</ele>
        <time>2020-07-14T08:13:58Z</time>
      </trkpt>
      <trkpt lat="42.80092" lon="2.9068">
        <ele>7.2</ele>
        <time>2020-07-14T08:14:09Z</time>
      </trkpt>
      <trkpt lat="42.80066" lon="2.9075">
        <ele>2.8</ele>
        <time>2020-07-14T08:14:19Z</time>
      </trkpt>
      <trkpt lat="42.80042" lon="2.90822">
        <ele>-1.8</ele>
        <time>2020-07-14T08:14:28Z</time>
      </trkpt>
      <trkpt lat="42.80014" lon="2.90887">
        <ele>-6.6</ele>
        <time>2020-07-14T08:14:37Z</time>
      </trkpt>
      <trkpt lat="42.7998" lon="2.90946">
        <ele>-11.8</ele>
        <time>2020-07-14T08:14:47Z</time>
      </trkpt>
      <trkpt lat="42.7997" lon="2.90965">
        <ele>-13.2</ele>
        <time>2020-07-14T08:14:51Z</time>
      </trkpt>
      <trkpt lat="42.79948" lon="2.91037">
        <ele>-16.6</ele>
        <time>2020-07-14T08:15:06Z</time>
      </trkpt>
      <trkpt lat="42.79918" lon="2.911">
        <ele>-17.6</ele>
        <time>2020-07-14T08:15:15Z</time>
      </trkpt>
      <trkpt lat="42.79883" lon="2.91156">
        <ele>-17.8</ele>
        <time>2020-07-14T08:15:23Z</time>
      </trkpt>
      <trkpt lat="42.79854" lon="2.91226">
        <ele>-17.6</ele>
        <time>2020-07-14T08:15:32Z</time>
      </trkpt>
      <trkpt lat="42.79836" lon="2.91302">
        <ele>-17.2</ele>
        <time>2020-07-14T08:15:41Z</time>
      </trkpt>
      <trkpt lat="42.79832" lon="2.91382">
        <ele>-16.6</ele>
        <time>2020-07-14T08:15:50Z</time>
      </trkpt>
      <trkpt lat="42.79838" lon="2.91462">
        <ele>-15.4</ele>
        <time>2020-07-14T08:15:59Z</time>
      </trkpt>
      <trkpt lat="42.7984" lon="2.9154">
        <ele>-13.8</ele>
        <time>2020-07-14T08:16:08Z</time>
      </trkpt>
      <trkpt lat="42.79836" lon="2.91619">
        <ele>-12.4</ele>
        <time>2020-07-14T08:16:17Z</time>
      </trkpt>
      <trkpt lat="42.79833" lon="2.91698">
        <ele>-11.4</ele>
        <time>2020-07-14T08:16:26Z</time>
      </trkpt>
      <trkpt lat="42.79844" lon="2.91774">
        <ele>-10.2</ele>
        <time>2020-07-14T08:16:35Z</time>
      </trkpt>
      <trkpt lat="42.79846" lon="2.9185">
        <ele>-9</ele>
        <time>2020-07-14T08:16:44Z</time>
      </trkpt>
      <trkpt lat="42.79846" lon="2.91923">
        <ele>-7.8</ele>
        <time>2020-07-14T08:16:53Z</time>
      </trkpt>
      <trkpt lat="42.79838" lon="2.92">
        <ele>-6.6</ele>
        <time>2020-07-14T08:17:02Z</time>
      </trkpt>
      <trkpt lat="42.79833" lon="2.92077">
        <ele>-5.2</ele>
        <time>2020-07-14T08:17:11Z</time>
      </trkpt>
      <trkpt lat="42.79821" lon="2.92148">
        <ele>-4.4</ele>
        <time>2020-07-14T08:17:20Z</time>
      </trkpt>
      <trkpt lat="42.79806" lon="2.92221">
        <ele>-3.2</ele>
        <time>2020-07-14T08:17:29Z</time>
      </trkpt>
      <trkpt lat="42.79797" lon="2.92295">
        <ele>-2</ele>
        <time>2020-07-14T08:17:38Z</time>
      </trkpt>
      <trkpt lat="42.79788" lon="2.92371">
        <ele>-1.2</ele>
        <time>2020-07-14T08:17:47Z</time>
      </trkpt>
      <trkpt lat="42.79789" lon="2.92446">
        <ele>-0.19999999999999</ele>
        <time>2020-07-14T08:17:56Z</time>
      </trkpt>
      <trkpt lat="42.79794" lon="2.92523">
        <ele>1</ele>
        <time>2020-07-14T08:18:05Z</time>
      </trkpt>
      <trkpt lat="42.79794" lon="2.92557">
        <ele>1.4</ele>
        <time>2020-07-14T08:18:09Z</time>
      </trkpt>
      <trkpt lat="42.79783" lon="2.9263">
        <ele>2.2</ele>
        <time>2020-07-14T08:18:18Z</time>
      </trkpt>
      <trkpt lat="42.79775" lon="2.92705">
        <ele>2.8</ele>
        <time>2020-07-14T08:18:27Z</time>
      </trkpt>
      <trkpt lat="42.79776" lon="2.92782">
        <ele>3.8</ele>
        <time>2020-07-14T08:18:36Z</time>
      </trkpt>
      <trkpt lat="42.79774" lon="2.92861">
        <ele>4.4</ele>
        <time>2020-07-14T08:18:45Z</time>
      </trkpt>
      <trkpt lat="42.79773" lon="2.9294">
        <ele>4.8</ele>
        <time>2020-07-14T08:18:54Z</time>
      </trkpt>
      <trkpt lat="42.79773" lon="2.93017">
        <ele>4.8</ele>
        <time>2020-07-14T08:19:03Z</time>
      </trkpt>
      <trkpt lat="42.7977" lon="2.9309">
        <ele>5</ele>
        <time>2020-07-14T08:19:11Z</time>
      </trkpt>
      <trkpt lat="42.79763" lon="2.93164">
        <ele>5.4</ele>
        <time>2020-07-14T08:19:19Z</time>
      </trkpt>
      <trkpt lat="42.79761" lon="2.93241">
        <ele>6.6</ele>
        <time>2020-07-14T08:19:28Z</time>
      </trkpt>
      <trkpt lat="42.79757" lon="2.93319">
        <ele>7.8</ele>
        <time>2020-07-14T08:19:39Z</time>
      </trkpt>
      <trkpt lat="42.79741" lon="2.93391">
        <ele>8.2</ele>
        <time>2020-07-14T08:19:48Z</time>
      </trkpt>
      <trkpt lat="42.79714" lon="2.93464">
        <ele>9</ele>
        <time>2020-07-14T08:19:57Z</time>
      </trkpt>
      <trkpt lat="42.79679" lon="2.93528">
        <ele>9.4</ele>
        <time>2020-07-14T08:20:06Z</time>
      </trkpt>
      <trkpt lat="42.79639" lon="2.93582">
        <ele>9.6</ele>
        <time>2020-07-14T08:20:15Z</time>
      </trkpt>
      <trkpt lat="42.79603" lon="2.93624">
        <ele>9.2</ele>
        <time>2020-07-14T08:20:24Z</time>
      </trkpt>
      <trkpt lat="42.79584" lon="2.9362">
        <ele>9</ele>
        <time>2020-07-14T08:20:29Z</time>
      </trkpt>
      <trkpt lat="42.79566" lon="2.93609">
        <ele>8.4</ele>
        <time>2020-07-14T08:20:34Z</time>
      </trkpt>
      <trkpt lat="42.79545" lon="2.93626">
        <ele>7.2</ele>
        <time>2020-07-14T08:20:41Z</time>
      </trkpt>
      <trkpt lat="42.79514" lon="2.93691">
        <ele>6</ele>
        <time>2020-07-14T08:20:52Z</time>
      </trkpt>
      <trkpt lat="42.79488" lon="2.9376">
        <ele>5.8</ele>
        <time>2020-07-14T08:21:04Z</time>
      </trkpt>
      <trkpt lat="42.79452" lon="2.93803">
        <ele>5.2</ele>
        <time>2020-07-14T08:21:19Z</time>
      </trkpt>
      <trkpt lat="42.79436" lon="2.93816">
        <ele>5</ele>
        <time>2020-07-14T08:21:23Z</time>
      </trkpt>
      <trkpt lat="42.7941" lon="2.93882">
        <ele>5.4</ele>
        <time>2020-07-14T08:21:34Z</time>
      </trkpt>
      <trkpt lat="42.79386" lon="2.93949">
        <ele>6.6</ele>
        <time>2020-07-14T08:21:46Z</time>
      </trkpt>
      <trkpt lat="42.79338" lon="2.93991">
        <ele>7.4</ele>
        <time>2020-07-14T08:21:58Z</time>
      </trkpt>
      <trkpt lat="42.79309" lon="2.94004">
        <ele>7.6</ele>
        <time>2020-07-14T08:22:09Z</time>
      </trkpt>
      <trkpt lat="42.79309" lon="2.94005">
        <ele>7.8</ele>
        <time>2020-07-14T08:22:37Z</time>
      </trkpt>
      <trkpt lat="42.79306" lon="2.94018">
        <ele>7.6</ele>
        <time>2020-07-14T08:22:42Z</time>
      </trkpt>
      <trkpt lat="42.79297" lon="2.94092">
        <ele>6.6</ele>
        <time>2020-07-14T08:22:54Z</time>
      </trkpt>
      <trkpt lat="42.79302" lon="2.94167">
        <ele>5.4</ele>
        <time>2020-07-14T08:23:05Z</time>
      </trkpt>
      <trkpt lat="42.79302" lon="2.94195">
        <ele>5</ele>
        <time>2020-07-14T08:23:09Z</time>
      </trkpt>
      <trkpt lat="42.79291" lon="2.94268">
        <ele>3.8</ele>
        <time>2020-07-14T08:23:20Z</time>
      </trkpt>
      <trkpt lat="42.7927" lon="2.94336">
        <ele>3.2</ele>
        <time>2020-07-14T08:23:30Z</time>
      </trkpt>
      <trkpt lat="42.79243" lon="2.94402">
        <ele>2.4</ele>
        <time>2020-07-14T08:23:41Z</time>
      </trkpt>
      <trkpt lat="42.79213" lon="2.94471">
        <ele>1.6</ele>
        <time>2020-07-14T08:23:51Z</time>
      </trkpt>
      <trkpt lat="42.79206" lon="2.94484">
        <ele>1.4</ele>
        <time>2020-07-14T08:23:53Z</time>
      </trkpt>
      <trkpt lat="42.79177" lon="2.94547">
        <ele>0.39999999999998</ele>
        <time>2020-07-14T08:24:02Z</time>
      </trkpt>
      <trkpt lat="42.79158" lon="2.94615">
        <ele>-0.60000000000002</ele>
        <time>2020-07-14T08:24:11Z</time>
      </trkpt>
      <trkpt lat="42.79147" lon="2.94689">
        <ele>-2</ele>
        <time>2020-07-14T08:24:20Z</time>
      </trkpt>
      <trkpt lat="42.79139" lon="2.94764">
        <ele>-3</ele>
        <time>2020-07-14T08:24:28Z</time>
      </trkpt>
      <trkpt lat="42.79127" lon="2.94838">
        <ele>-3.8</ele>
        <time>2020-07-14T08:24:36Z</time>
      </trkpt>
      <trkpt lat="42.79108" lon="2.94914">
        <ele>-4.6</ele>
        <time>2020-07-14T08:24:45Z</time>
      </trkpt>
      <trkpt lat="42.79084" lon="2.94981">
        <ele>-5.2</ele>
        <time>2020-07-14T08:24:53Z</time>
      </trkpt>
      <trkpt lat="42.79057" lon="2.95045">
        <ele>-5.8</ele>
        <time>2020-07-14T08:25:01Z</time>
      </trkpt>
      <trkpt lat="42.7903" lon="2.95109">
        <ele>-6</ele>
        <time>2020-07-14T08:25:09Z</time>
      </trkpt>
      <trkpt lat="42.79" lon="2.95179">
        <ele>-6.2</ele>
        <time>2020-07-14T08:25:18Z</time>
      </trkpt>
      <trkpt lat="42.7897" lon="2.95248">
        <ele>-6</ele>
        <time>2020-07-14T08:25:27Z</time>
      </trkpt>
      <trkpt lat="42.7895" lon="2.95318">
        <ele>-5.4</ele>
        <time>2020-07-14T08:25:36Z</time>
      </trkpt>
      <trkpt lat="42.78938" lon="2.95392">
        <ele>-4.6</ele>
        <time>2020-07-14T08:25:46Z</time>
      </trkpt>
      <trkpt lat="42.78933" lon="2.95468">
        <ele>-3.8</ele>
        <time>2020-07-14T08:25:57Z</time>
      </trkpt>
      <trkpt lat="42.78932" lon="2.95545">
        <ele>-3.4</ele>
        <time>2020-07-14T08:26:08Z</time>
      </trkpt>
      <trkpt lat="42.78927" lon="2.95619">
        <ele>-3.6</ele>
        <time>2020-07-14T08:26:19Z</time>
      </trkpt>
      <trkpt lat="42.78924" lon="2.95697">
        <ele>-4.4</ele>
        <time>2020-07-14T08:26:30Z</time>
      </trkpt>
      <trkpt lat="42.78929" lon="2.9577">
        <ele>-5</ele>
        <time>2020-07-14T08:26:39Z</time>
      </trkpt>
      <trkpt lat="42.78932" lon="2.95844">
        <ele>-5.2</ele>
        <time>2020-07-14T08:26:48Z</time>
      </trkpt>
      <trkpt lat="42.7893" lon="2.95919">
        <ele>-5.4</ele>
        <time>2020-07-14T08:26:58Z</time>
      </trkpt>
      <trkpt lat="42.78922" lon="2.95992">
        <ele>-5.2</ele>
        <time>2020-07-14T08:27:09Z</time>
      </trkpt>
      <trkpt lat="42.78902" lon="2.96063">
        <ele>-5.6</ele>
        <time>2020-07-14T08:27:19Z</time>
      </trkpt>
      <trkpt lat="42.78864" lon="2.96121">
        <ele>-5.6</ele>
        <time>2020-07-14T08:27:29Z</time>
      </trkpt>
      <trkpt lat="42.78821" lon="2.96176">
        <ele>-5.8</ele>
        <time>2020-07-14T08:27:41Z</time>
      </trkpt>
      <trkpt lat="42.78796" lon="2.962">
        <ele>-5.8</ele>
        <time>2020-07-14T08:27:49Z</time>
      </trkpt>
      <trkpt lat="42.78812" lon="2.96182">
        <ele>-6.8</ele>
        <time>2020-07-14T08:28:03Z</time>
      </trkpt>
      <trkpt lat="42.78804" lon="2.96166">
        <ele>-6.8</ele>
        <time>2020-07-14T08:28:12Z</time>
      </trkpt>
      <trkpt lat="42.78802" lon="2.96166">
        <ele>-6.8</ele>
        <time>2020-07-14T08:29:36Z</time>
      </trkpt>
      <trkpt lat="42.78802" lon="2.96184">
        <ele>-6.2</ele>
        <time>2020-07-14T08:29:42Z</time>
      </trkpt>
      <trkpt lat="42.78781" lon="2.96211">
        <ele>-5.4</ele>
        <time>2020-07-14T08:29:49Z</time>
      </trkpt>
      <trkpt lat="42.78766" lon="2.96283">
        <ele>-5.8</ele>
        <time>2020-07-14T08:30:02Z</time>
      </trkpt>
      <trkpt lat="42.78755" lon="2.96355">
        <ele>-7.4</ele>
        <time>2020-07-14T08:30:15Z</time>
      </trkpt>
      <trkpt lat="42.78735" lon="2.96397">
        <ele>-8.2</ele>
        <time>2020-07-14T08:30:24Z</time>
      </trkpt>
      <trkpt lat="42.7869" lon="2.96443">
        <ele>-6.6</ele>
        <time>2020-07-14T08:30:36Z</time>
      </trkpt>
      <trkpt lat="42.78645" lon="2.96485">
        <ele>-5.4</ele>
        <time>2020-07-14T08:30:48Z</time>
      </trkpt>
      <trkpt lat="42.78601" lon="2.96519">
        <ele>-4.8</ele>
        <time>2020-07-14T08:30:58Z</time>
      </trkpt>
      <trkpt lat="42.78586" lon="2.96521">
        <ele>-4.8</ele>
        <time>2020-07-14T08:31:01Z</time>
      </trkpt>
      <trkpt lat="42.78527" lon="2.96519">
        <ele>-5.2</ele>
        <time>2020-07-14T08:31:11Z</time>
      </trkpt>
      <trkpt lat="42.78469" lon="2.96514">
        <ele>-5.8</ele>
        <time>2020-07-14T08:31:21Z</time>
      </trkpt>
      <trkpt lat="42.78412" lon="2.96516">
        <ele>-6.4</ele>
        <time>2020-07-14T08:31:31Z</time>
      </trkpt>
      <trkpt lat="42.78357" lon="2.96527">
        <ele>-6.4</ele>
        <time>2020-07-14T08:31:42Z</time>
      </trkpt>
      <trkpt lat="42.78339" lon="2.96523">
        <ele>-6.4</ele>
        <time>2020-07-14T08:31:46Z</time>
      </trkpt>
      <trkpt lat="42.78281" lon="2.96501">
        <ele>-5.4</ele>
        <time>2020-07-14T08:31:57Z</time>
      </trkpt>
      <trkpt lat="42.78262" lon="2.96488">
        <ele>-4.8</ele>
        <time>2020-07-14T08:32:01Z</time>
      </trkpt>
      <trkpt lat="42.78219" lon="2.96447">
        <ele>-3.8</ele>
        <time>2020-07-14T08:32:11Z</time>
      </trkpt>
      <trkpt lat="42.78199" lon="2.96429">
        <ele>-3.2</ele>
        <time>2020-07-14T08:32:15Z</time>
      </trkpt>
      <trkpt lat="42.78164" lon="2.96398">
        <ele>-2.6</ele>
        <time>2020-07-14T08:32:22Z</time>
      </trkpt>
      <trkpt lat="42.78152" lon="2.96385">
        <ele>-2.2</ele>
        <time>2020-07-14T08:32:25Z</time>
      </trkpt>
      <trkpt lat="42.78104" lon="2.96351">
        <ele>-1.2</ele>
        <time>2020-07-14T08:32:35Z</time>
      </trkpt>
      <trkpt lat="42.7805" lon="2.9633">
        <ele>-0.39999999999998</ele>
        <time>2020-07-14T08:32:45Z</time>
      </trkpt>
      <trkpt lat="42.78034" lon="2.96324">
        <ele>4</ele>
        <time>2020-07-14T08:32:48Z</time>
      </trkpt>
      <trkpt lat="42.78024" lon="2.96321">
        <ele>0.19999999999999</ele>
        <time>2020-07-14T08:32:50Z</time>
      </trkpt>
      <trkpt lat="42.78002" lon="2.96313">
        <ele>0.60000000000002</ele>
        <time>2020-07-14T08:32:54Z</time>
      </trkpt>
      <trkpt lat="42.77993" lon="2.96307">
        <ele>0.80000000000001</ele>
        <time>2020-07-14T08:32:56Z</time>
      </trkpt>
      <trkpt lat="42.77976" lon="2.96294">
        <ele>1.2</ele>
        <time>2020-07-14T08:33:00Z</time>
      </trkpt>
      <trkpt lat="42.77958" lon="2.96271">
        <ele>1.6</ele>
        <time>2020-07-14T08:33:06Z</time>
      </trkpt>
      <trkpt lat="42.77945" lon="2.96251">
        <ele>2</ele>
        <time>2020-07-14T08:33:11Z</time>
      </trkpt>
      <trkpt lat="42.77932" lon="2.96179">
        <ele>3.6</ele>
        <time>2020-07-14T08:33:23Z</time>
      </trkpt>
      <trkpt lat="42.77922" lon="2.96106">
        <ele>4.6</ele>
        <time>2020-07-14T08:33:35Z</time>
      </trkpt>
      <trkpt lat="42.77914" lon="2.96079">
        <ele>5.2</ele>
        <time>2020-07-14T08:33:40Z</time>
      </trkpt>
      <trkpt lat="42.77893" lon="2.96055">
        <ele>6</ele>
        <time>2020-07-14T08:33:47Z</time>
      </trkpt>
      <trkpt lat="42.77848" lon="2.96035">
        <ele>8.6</ele>
        <time>2020-07-14T08:34:02Z</time>
      </trkpt>
      <trkpt lat="42.77801" lon="2.96067">
        <ele>11.8</ele>
        <time>2020-07-14T08:34:18Z</time>
      </trkpt>
      <trkpt lat="42.77748" lon="2.96081">
        <ele>14.6</ele>
        <time>2020-07-14T08:34:31Z</time>
      </trkpt>
      <trkpt lat="42.77722" lon="2.96094">
        <ele>15.4</ele>
        <time>2020-07-14T08:34:36Z</time>
      </trkpt>
      <trkpt lat="42.77681" lon="2.96147">
        <ele>16</ele>
        <time>2020-07-14T08:34:44Z</time>
      </trkpt>
      <trkpt lat="42.77675" lon="2.96152">
        <ele>16</ele>
        <time>2020-07-14T08:34:45Z</time>
      </trkpt>
      <trkpt lat="42.77657" lon="2.96163">
        <ele>16.2</ele>
        <time>2020-07-14T08:34:48Z</time>
      </trkpt>
      <trkpt lat="42.77642" lon="2.96179">
        <ele>16.4</ele>
        <time>2020-07-14T08:34:51Z</time>
      </trkpt>
      <trkpt lat="42.7764" lon="2.96224">
        <ele>16.6</ele>
        <time>2020-07-14T08:34:56Z</time>
      </trkpt>
      <trkpt lat="42.7764" lon="2.96234">
        <ele>16.8</ele>
        <time>2020-07-14T08:34:57Z</time>
      </trkpt>
      <trkpt lat="42.77634" lon="2.96269">
        <ele>17</ele>
        <time>2020-07-14T08:35:01Z</time>
      </trkpt>
      <trkpt lat="42.77613" lon="2.96339">
        <ele>17.4</ele>
        <time>2020-07-14T08:35:12Z</time>
      </trkpt>
      <trkpt lat="42.77591" lon="2.96407">
        <ele>17.8</ele>
        <time>2020-07-14T08:35:21Z</time>
      </trkpt>
      <trkpt lat="42.77586" lon="2.96422">
        <ele>17.8</ele>
        <time>2020-07-14T08:35:23Z</time>
      </trkpt>
      <trkpt lat="42.7756" lon="2.96489">
        <ele>18</ele>
        <time>2020-07-14T08:35:32Z</time>
      </trkpt>
      <trkpt lat="42.77534" lon="2.96556">
        <ele>18.4</ele>
        <time>2020-07-14T08:35:41Z</time>
      </trkpt>
      <trkpt lat="42.77507" lon="2.96621">
        <ele>19</ele>
        <time>2020-07-14T08:35:50Z</time>
      </trkpt>
      <trkpt lat="42.77477" lon="2.9669">
        <ele>20.4</ele>
        <time>2020-07-14T08:36:00Z</time>
      </trkpt>
      <trkpt lat="42.7745" lon="2.96754">
        <ele>21.6</ele>
        <time>2020-07-14T08:36:09Z</time>
      </trkpt>
      <trkpt lat="42.7742" lon="2.96823">
        <ele>23</ele>
        <time>2020-07-14T08:36:19Z</time>
      </trkpt>
      <trkpt lat="42.77392" lon="2.96893">
        <ele>24.2</ele>
        <time>2020-07-14T08:36:29Z</time>
      </trkpt>
      <trkpt lat="42.77364" lon="2.96965">
        <ele>25.2</ele>
        <time>2020-07-14T08:36:39Z</time>
      </trkpt>
      <trkpt lat="42.7734" lon="2.97032">
        <ele>26</ele>
        <time>2020-07-14T08:36:48Z</time>
      </trkpt>
      <trkpt lat="42.77315" lon="2.97101">
        <ele>25.8</ele>
        <time>2020-07-14T08:36:58Z</time>
      </trkpt>
      <trkpt lat="42.77292" lon="2.97168">
        <ele>25.2</ele>
        <time>2020-07-14T08:37:08Z</time>
      </trkpt>
      <trkpt lat="42.77272" lon="2.9724">
        <ele>24.2</ele>
        <time>2020-07-14T08:37:18Z</time>
      </trkpt>
      <trkpt lat="42.77255" lon="2.97317">
        <ele>23.4</ele>
        <time>2020-07-14T08:37:28Z</time>
      </trkpt>
      <trkpt lat="42.77237" lon="2.97388">
        <ele>22.8</ele>
        <time>2020-07-14T08:37:37Z</time>
      </trkpt>
      <trkpt lat="42.77219" lon="2.97464">
        <ele>22.2</ele>
        <time>2020-07-14T08:37:46Z</time>
      </trkpt>
      <trkpt lat="42.772" lon="2.97541">
        <ele>22.4</ele>
        <time>2020-07-14T08:37:55Z</time>
      </trkpt>
      <trkpt lat="42.77183" lon="2.97618">
        <ele>22.8</ele>
        <time>2020-07-14T08:38:04Z</time>
      </trkpt>
      <trkpt lat="42.77164" lon="2.97661">
        <ele>23.2</ele>
        <time>2020-07-14T08:38:10Z</time>
      </trkpt>
      <trkpt lat="42.77142" lon="2.9768">
        <ele>23</ele>
        <time>2020-07-14T08:38:15Z</time>
      </trkpt>
      <trkpt lat="42.77117" lon="2.97685">
        <ele>22.6</ele>
        <time>2020-07-14T08:38:20Z</time>
      </trkpt>
      <trkpt lat="42.77101" lon="2.97702">
        <ele>22</ele>
        <time>2020-07-14T08:38:24Z</time>
      </trkpt>
      <trkpt lat="42.77057" lon="2.97756">
        <ele>21</ele>
        <time>2020-07-14T08:38:33Z</time>
      </trkpt>
      <trkpt lat="42.77016" lon="2.97809">
        <ele>19.8</ele>
        <time>2020-07-14T08:38:41Z</time>
      </trkpt>
      <trkpt lat="42.76969" lon="2.97853">
        <ele>18.8</ele>
        <time>2020-07-14T08:38:50Z</time>
      </trkpt>
      <trkpt lat="42.76922" lon="2.97893">
        <ele>18</ele>
        <time>2020-07-14T08:38:59Z</time>
      </trkpt>
      <trkpt lat="42.76874" lon="2.97941">
        <ele>17.4</ele>
        <time>2020-07-14T08:39:09Z</time>
      </trkpt>
      <trkpt lat="42.76828" lon="2.97988">
        <ele>16.8</ele>
        <time>2020-07-14T08:39:18Z</time>
      </trkpt>
      <trkpt lat="42.76781" lon="2.98038">
        <ele>16.2</ele>
        <time>2020-07-14T08:39:27Z</time>
      </trkpt>
      <trkpt lat="42.76735" lon="2.98089">
        <ele>15.4</ele>
        <time>2020-07-14T08:39:36Z</time>
      </trkpt>
      <trkpt lat="42.76689" lon="2.98135">
        <ele>14.8</ele>
        <time>2020-07-14T08:39:45Z</time>
      </trkpt>
      <trkpt lat="42.76645" lon="2.98185">
        <ele>14.4</ele>
        <time>2020-07-14T08:39:54Z</time>
      </trkpt>
      <trkpt lat="42.766" lon="2.9823">
        <ele>14</ele>
        <time>2020-07-14T08:40:03Z</time>
      </trkpt>
      <trkpt lat="42.7655" lon="2.98262">
        <ele>13.8</ele>
        <time>2020-07-14T08:40:12Z</time>
      </trkpt>
      <trkpt lat="42.76494" lon="2.98282">
        <ele>13.6</ele>
        <time>2020-07-14T08:40:22Z</time>
      </trkpt>
      <trkpt lat="42.76437" lon="2.98305">
        <ele>13.6</ele>
        <time>2020-07-14T08:40:32Z</time>
      </trkpt>
      <trkpt lat="42.76425" lon="2.98311">
        <ele>13.8</ele>
        <time>2020-07-14T08:40:34Z</time>
      </trkpt>
      <trkpt lat="42.76376" lon="2.98352">
        <ele>13.6</ele>
        <time>2020-07-14T08:40:44Z</time>
      </trkpt>
      <trkpt lat="42.7636" lon="2.98379">
        <ele>13.6</ele>
        <time>2020-07-14T08:40:49Z</time>
      </trkpt>
      <trkpt lat="42.76364" lon="2.98432">
        <ele>13.4</ele>
        <time>2020-07-14T08:40:56Z</time>
      </trkpt>
      <trkpt lat="42.76386" lon="2.98503">
        <ele>13.2</ele>
        <time>2020-07-14T08:41:07Z</time>
      </trkpt>
      <trkpt lat="42.76404" lon="2.98569">
        <ele>14.6</ele>
        <time>2020-07-14T08:41:30Z</time>
      </trkpt>
      <trkpt lat="42.76409" lon="2.98586">
        <ele>14.8</ele>
        <time>2020-07-14T08:41:40Z</time>
      </trkpt>
      <trkpt lat="42.76413" lon="2.98581">
        <ele>14.2</ele>
        <time>2020-07-14T08:44:21Z</time>
      </trkpt>
      <trkpt lat="42.7643" lon="2.98651">
        <ele>11.4</ele>
        <time>2020-07-14T08:44:37Z</time>
      </trkpt>
      <trkpt lat="42.76432" lon="2.9869">
        <ele>9.8</ele>
        <time>2020-07-14T08:44:50Z</time>
      </trkpt>
      <trkpt lat="42.764" lon="2.98696">
        <ele>9.2</ele>
        <time>2020-07-14T08:44:59Z</time>
      </trkpt>
      <trkpt lat="42.76345" lon="2.98709">
        <ele>8.2</ele>
        <time>2020-07-14T08:45:20Z</time>
      </trkpt>
      <trkpt lat="42.76338" lon="2.98713">
        <ele>8</ele>
        <time>2020-07-14T08:45:23Z</time>
      </trkpt>
      <trkpt lat="42.76343" lon="2.98733">
        <ele>7.6</ele>
        <time>2020-07-14T08:45:29Z</time>
      </trkpt>
      <trkpt lat="42.76365" lon="2.98799">
        <ele>5.6</ele>
        <time>2020-07-14T08:45:39Z</time>
      </trkpt>
      <trkpt lat="42.76375" lon="2.98878">
        <ele>3.8</ele>
        <time>2020-07-14T08:45:51Z</time>
      </trkpt>
      <trkpt lat="42.76381" lon="2.98955">
        <ele>2.4</ele>
        <time>2020-07-14T08:46:03Z</time>
      </trkpt>
      <trkpt lat="42.76397" lon="2.9903">
        <ele>0.60000000000002</ele>
        <time>2020-07-14T08:46:15Z</time>
      </trkpt>
      <trkpt lat="42.76412" lon="2.99106">
        <ele>-0.80000000000001</ele>
        <time>2020-07-14T08:46:27Z</time>
      </trkpt>
      <trkpt lat="42.76424" lon="2.99181">
        <ele>-1.8</ele>
        <time>2020-07-14T08:46:37Z</time>
      </trkpt>
      <trkpt lat="42.76436" lon="2.99255">
        <ele>-2.8</ele>
        <time>2020-07-14T08:46:47Z</time>
      </trkpt>
      <trkpt lat="42.76445" lon="2.99323">
        <ele>-3.6</ele>
        <time>2020-07-14T08:46:57Z</time>
      </trkpt>
      <trkpt lat="42.76411" lon="2.99319">
        <ele>-6.4</ele>
        <time>2020-07-14T08:47:14Z</time>
      </trkpt>
      <trkpt lat="42.76413" lon="2.99323">
        <ele>-6.8</ele>
        <time>2020-07-14T08:47:16Z</time>
      </trkpt>
      <trkpt lat="42.76435" lon="2.99391">
        <ele>-9</ele>
        <time>2020-07-14T08:47:27Z</time>
      </trkpt>
      <trkpt lat="42.76457" lon="2.99461">
        <ele>-9.2</ele>
        <time>2020-07-14T08:47:37Z</time>
      </trkpt>
      <trkpt lat="42.76475" lon="2.99534">
        <ele>-8.4</ele>
        <time>2020-07-14T08:47:48Z</time>
      </trkpt>
      <trkpt lat="42.76477" lon="2.99548">
        <ele>-8.2</ele>
        <time>2020-07-14T08:47:50Z</time>
      </trkpt>
      <trkpt lat="42.76493" lon="2.99626">
        <ele>-6.4</ele>
        <time>2020-07-14T08:48:01Z</time>
      </trkpt>
      <trkpt lat="42.76506" lon="2.99699">
        <ele>-4.4</ele>
        <time>2020-07-14T08:48:11Z</time>
      </trkpt>
      <trkpt lat="42.76523" lon="2.99775">
        <ele>-2.4</ele>
        <time>2020-07-14T08:48:22Z</time>
      </trkpt>
      <trkpt lat="42.76526" lon="2.99795">
        <ele>-1.8</ele>
        <time>2020-07-14T08:48:25Z</time>
      </trkpt>
      <trkpt lat="42.76541" lon="2.99846">
        <ele>0.19999999999999</ele>
        <time>2020-07-14T08:48:36Z</time>
      </trkpt>
      <trkpt lat="42.76564" lon="2.99918">
        <ele>2</ele>
        <time>2020-07-14T08:48:48Z</time>
      </trkpt>
      <trkpt lat="42.76586" lon="2.99986">
        <ele>3.2</ele>
        <time>2020-07-14T08:48:58Z</time>
      </trkpt>
      <trkpt lat="42.76609" lon="3.00058">
        <ele>4</ele>
        <time>2020-07-14T08:49:08Z</time>
      </trkpt>
      <trkpt lat="42.76629" lon="3.00129">
        <ele>4.6</ele>
        <time>2020-07-14T08:49:18Z</time>
      </trkpt>
      <trkpt lat="42.76648" lon="3.00204">
        <ele>4.8</ele>
        <time>2020-07-14T08:49:30Z</time>
      </trkpt>
      <trkpt lat="42.76666" lon="3.00278">
        <ele>4.8</ele>
        <time>2020-07-14T08:49:42Z</time>
      </trkpt>
      <trkpt lat="42.76686" lon="3.00349">
        <ele>4.6</ele>
        <time>2020-07-14T08:49:52Z</time>
      </trkpt>
      <trkpt lat="42.76706" lon="3.00417">
        <ele>4.4</ele>
        <time>2020-07-14T08:50:02Z</time>
      </trkpt>
      <trkpt lat="42.76725" lon="3.0049">
        <ele>4</ele>
        <time>2020-07-14T08:50:14Z</time>
      </trkpt>
      <trkpt lat="42.76743" lon="3.00562">
        <ele>3.6</ele>
        <time>2020-07-14T08:50:25Z</time>
      </trkpt>
      <trkpt lat="42.76765" lon="3.00635">
        <ele>3.4</ele>
        <time>2020-07-14T08:50:37Z</time>
      </trkpt>
      <trkpt lat="42.76775" lon="3.00708">
        <ele>3.4</ele>
        <time>2020-07-14T08:50:50Z</time>
      </trkpt>
      <trkpt lat="42.76803" lon="3.0077">
        <ele>3</ele>
        <time>2020-07-14T08:51:05Z</time>
      </trkpt>
      <trkpt lat="42.76827" lon="3.00841">
        <ele>2.4</ele>
        <time>2020-07-14T08:51:18Z</time>
      </trkpt>
      <trkpt lat="42.76847" lon="3.0091">
        <ele>1.4</ele>
        <time>2020-07-14T08:51:31Z</time>
      </trkpt>
      <trkpt lat="42.76863" lon="3.00982">
        <ele>1.6</ele>
        <time>2020-07-14T08:51:43Z</time>
      </trkpt>
      <trkpt lat="42.76884" lon="3.01054">
        <ele>1.8</ele>
        <time>2020-07-14T08:51:54Z</time>
      </trkpt>
      <trkpt lat="42.76903" lon="3.01123">
        <ele>1.4</ele>
        <time>2020-07-14T08:52:05Z</time>
      </trkpt>
      <trkpt lat="42.76921" lon="3.01195">
        <ele>0.39999999999998</ele>
        <time>2020-07-14T08:52:16Z</time>
      </trkpt>
      <trkpt lat="42.76936" lon="3.01266">
        <ele>-0.80000000000001</ele>
        <time>2020-07-14T08:52:27Z</time>
      </trkpt>
      <trkpt lat="42.76952" lon="3.01339">
        <ele>-1.8</ele>
        <time>2020-07-14T08:52:41Z</time>
      </trkpt>
      <trkpt lat="42.76973" lon="3.01411">
        <ele>-2</ele>
        <time>2020-07-14T08:52:56Z</time>
      </trkpt>
      <trkpt lat="42.7699" lon="3.01487">
        <ele>-1.2</ele>
        <time>2020-07-14T08:53:09Z</time>
      </trkpt>
      <trkpt lat="42.76998" lon="3.0156">
        <ele>-0.80000000000001</ele>
        <time>2020-07-14T08:53:20Z</time>
      </trkpt>
      <trkpt lat="42.77004" lon="3.01637">
        <ele>-1</ele>
        <time>2020-07-14T08:53:30Z</time>
      </trkpt>
      <trkpt lat="42.77005" lon="3.01714">
        <ele>-0.80000000000001</ele>
        <time>2020-07-14T08:53:43Z</time>
      </trkpt>
      <trkpt lat="42.77006" lon="3.01729">
        <ele>-0.60000000000002</ele>
        <time>2020-07-14T08:53:46Z</time>
      </trkpt>
      <trkpt lat="42.7701" lon="3.01735">
        <ele>-0.39999999999998</ele>
        <time>2020-07-14T08:53:50Z</time>
      </trkpt>
      <trkpt lat="42.77013" lon="3.01742">
        <ele>0.60000000000002</ele>
        <time>2020-07-14T08:54:01Z</time>
      </trkpt>
      <trkpt lat="42.77017" lon="3.01751">
        <ele>1.6</ele>
        <time>2020-07-14T08:54:08Z</time>
      </trkpt>
      <trkpt lat="42.77071" lon="3.01737">
        <ele>5.2</ele>
        <time>2020-07-14T08:54:25Z</time>
      </trkpt>
      <trkpt lat="42.7712" lon="3.01719">
        <ele>9.4</ele>
        <time>2020-07-14T08:54:42Z</time>
      </trkpt>
      <trkpt lat="42.77115" lon="3.01706">
        <ele>9.8</ele>
        <time>2020-07-14T08:54:46Z</time>
      </trkpt>
      <trkpt lat="42.77117" lon="3.01706">
        <ele>9.8</ele>
        <time>2020-07-14T08:54:48Z</time>
      </trkpt>
      <trkpt lat="42.77131" lon="3.01733">
        <ele>9.2</ele>
        <time>2020-07-14T08:54:53Z</time>
      </trkpt>
      <trkpt lat="42.77138" lon="3.0176">
        <ele>9.8</ele>
        <time>2020-07-14T08:54:56Z</time>
      </trkpt>
      <trkpt lat="42.77159" lon="3.0177">
        <ele>9.6</ele>
        <time>2020-07-14T08:55:02Z</time>
      </trkpt>
      <trkpt lat="42.77216" lon="3.01763">
        <ele>9.8</ele>
        <time>2020-07-14T08:55:17Z</time>
      </trkpt>
      <trkpt lat="42.77272" lon="3.01746">
        <ele>10.6</ele>
        <time>2020-07-14T08:55:29Z</time>
      </trkpt>
      <trkpt lat="42.77325" lon="3.01731">
        <ele>11.4</ele>
        <time>2020-07-14T08:55:40Z</time>
      </trkpt>
      <trkpt lat="42.77381" lon="3.01713">
        <ele>12</ele>
        <time>2020-07-14T08:55:53Z</time>
      </trkpt>
      <trkpt lat="42.77437" lon="3.01713">
        <ele>11</ele>
        <time>2020-07-14T08:56:07Z</time>
      </trkpt>
      <trkpt lat="42.77454" lon="3.01786">
        <ele>10.6</ele>
        <time>2020-07-14T08:56:20Z</time>
      </trkpt>
      <trkpt lat="42.77466" lon="3.01858">
        <ele>9.6</ele>
        <time>2020-07-14T08:56:32Z</time>
      </trkpt>
      <trkpt lat="42.7747" lon="3.01877">
        <ele>9.4</ele>
        <time>2020-07-14T08:56:37Z</time>
      </trkpt>
      <trkpt lat="42.77476" lon="3.01878">
        <ele>9.4</ele>
        <time>2020-07-14T08:56:41Z</time>
      </trkpt>
      <trkpt lat="42.77479" lon="3.01872">
        <ele>9.4</ele>
        <time>2020-07-14T08:56:44Z</time>
      </trkpt>
      <trkpt lat="42.77477" lon="3.01794">
        <ele>7.8</ele>
        <time>2020-07-14T08:56:56Z</time>
      </trkpt>
      <trkpt lat="42.77474" lon="3.01719">
        <ele>7</ele>
        <time>2020-07-14T08:57:07Z</time>
      </trkpt>
      <trkpt lat="42.7747" lon="3.01673">
        <ele>6.4</ele>
        <time>2020-07-14T08:57:14Z</time>
      </trkpt>
      <trkpt lat="42.77479" lon="3.01653">
        <ele>5.8</ele>
        <time>2020-07-14T08:57:19Z</time>
      </trkpt>
      <trkpt lat="42.77538" lon="3.01655">
        <ele>4.4</ele>
        <time>2020-07-14T08:57:32Z</time>
      </trkpt>
      <trkpt lat="42.77593" lon="3.01656">
        <ele>3.8</ele>
        <time>2020-07-14T08:57:45Z</time>
      </trkpt>
      <trkpt lat="42.77647" lon="3.01648">
        <ele>3.2</ele>
        <time>2020-07-14T08:57:57Z</time>
      </trkpt>
      <trkpt lat="42.77703" lon="3.01633">
        <ele>3.2</ele>
        <time>2020-07-14T08:58:10Z</time>
      </trkpt>
      <trkpt lat="42.7776" lon="3.01624">
        <ele>3.4</ele>
        <time>2020-07-14T08:58:23Z</time>
      </trkpt>
      <trkpt lat="42.77782" lon="3.0162">
        <ele>3.4</ele>
        <time>2020-07-14T08:58:29Z</time>
      </trkpt>
      <trkpt lat="42.7783" lon="3.01658">
        <ele>2</ele>
        <time>2020-07-14T08:58:40Z</time>
      </trkpt>
      <trkpt lat="42.77876" lon="3.01704">
        <ele>0.39999999999998</ele>
        <time>2020-07-14T08:58:52Z</time>
      </trkpt>
      <trkpt lat="42.77924" lon="3.01751">
        <ele>-0.80000000000001</ele>
        <time>2020-07-14T08:59:06Z</time>
      </trkpt>
      <trkpt lat="42.77971" lon="3.01797">
        <ele>-1</ele>
        <time>2020-07-14T08:59:19Z</time>
      </trkpt>
      <trkpt lat="42.78012" lon="3.01845">
        <ele>-1.2</ele>
        <time>2020-07-14T08:59:31Z</time>
      </trkpt>
      <trkpt lat="42.78051" lon="3.01899">
        <ele>-1</ele>
        <time>2020-07-14T08:59:43Z</time>
      </trkpt>
      <trkpt lat="42.78096" lon="3.01948">
        <ele>-0.60000000000002</ele>
        <time>2020-07-14T08:59:55Z</time>
      </trkpt>
      <trkpt lat="42.78146" lon="3.01984">
        <ele>-0.39999999999998</ele>
        <time>2020-07-14T09:00:07Z</time>
      </trkpt>
      <trkpt lat="42.78202" lon="3.02003">
        <ele>0.80000000000001</ele>
        <time>2020-07-14T09:00:20Z</time>
      </trkpt>
      <trkpt lat="42.78251" lon="3.02042">
        <ele>1.4</ele>
        <time>2020-07-14T09:00:33Z</time>
      </trkpt>
      <trkpt lat="42.78299" lon="3.02078">
        <ele>2</ele>
        <time>2020-07-14T09:00:44Z</time>
      </trkpt>
      <trkpt lat="42.7835" lon="3.02111">
        <ele>2.4</ele>
        <time>2020-07-14T09:00:56Z</time>
      </trkpt>
      <trkpt lat="42.78401" lon="3.02146">
        <ele>2.8</ele>
        <time>2020-07-14T09:01:09Z</time>
      </trkpt>
      <trkpt lat="42.78449" lon="3.02185">
        <ele>2.6</ele>
        <time>2020-07-14T09:01:24Z</time>
      </trkpt>
      <trkpt lat="42.785" lon="3.02219">
        <ele>2.2</ele>
        <time>2020-07-14T09:01:37Z</time>
      </trkpt>
      <trkpt lat="42.78553" lon="3.02245">
        <ele>1.2</ele>
        <time>2020-07-14T09:01:50Z</time>
      </trkpt>
      <trkpt lat="42.78608" lon="3.02272">
        <ele>0.60000000000002</ele>
        <time>2020-07-14T09:02:03Z</time>
      </trkpt>
      <trkpt lat="42.78661" lon="3.02297">
        <ele>-0.39999999999998</ele>
        <time>2020-07-14T09:02:14Z</time>
      </trkpt>
      <trkpt lat="42.78717" lon="3.02316">
        <ele>-0.39999999999998</ele>
        <time>2020-07-14T09:02:26Z</time>
      </trkpt>
      <trkpt lat="42.78773" lon="3.02309">
        <ele>0.39999999999998</ele>
        <time>2020-07-14T09:02:39Z</time>
      </trkpt>
      <trkpt lat="42.78777" lon="3.02307">
        <ele>0.39999999999998</ele>
        <time>2020-07-14T09:02:40Z</time>
      </trkpt>
      <trkpt lat="42.78784" lon="3.023">
        <ele>0.60000000000002</ele>
        <time>2020-07-14T09:02:42Z</time>
      </trkpt>
      <trkpt lat="42.78814" lon="3.02258">
        <ele>0.80000000000001</ele>
        <time>2020-07-14T09:02:53Z</time>
      </trkpt>
      <trkpt lat="42.78826" lon="3.02271">
        <ele>0.60000000000002</ele>
        <time>2020-07-14T09:02:58Z</time>
      </trkpt>
      <trkpt lat="42.78851" lon="3.02317">
        <ele>-0.19999999999999</ele>
        <time>2020-07-14T09:03:08Z</time>
      </trkpt>
      <trkpt lat="42.78813" lon="3.02373">
        <ele>-0.19999999999999</ele>
        <time>2020-07-14T09:03:20Z</time>
      </trkpt>
      <trkpt lat="42.78787" lon="3.02426">
        <ele>0.19999999999999</ele>
        <time>2020-07-14T09:03:30Z</time>
      </trkpt>
      <trkpt lat="42.78774" lon="3.02452">
        <ele>0.60000000000002</ele>
        <time>2020-07-14T09:03:35Z</time>
      </trkpt>
      <trkpt lat="42.78756" lon="3.02528">
        <ele>0.80000000000001</ele>
        <time>2020-07-14T09:03:47Z</time>
      </trkpt>
      <trkpt lat="42.78741" lon="3.02604">
        <ele>0.80000000000001</ele>
        <time>2020-07-14T09:03:58Z</time>
      </trkpt>
      <trkpt lat="42.78723" lon="3.02675">
        <ele>0.60000000000002</ele>
        <time>2020-07-14T09:04:09Z</time>
      </trkpt>
      <trkpt lat="42.78715" lon="3.027">
        <ele>0.39999999999998</ele>
        <time>2020-07-14T09:04:13Z</time>
      </trkpt>
      <trkpt lat="42.78702" lon="3.0274">
        <ele>0.39999999999998</ele>
        <time>2020-07-14T09:04:19Z</time>
      </trkpt>
      <trkpt lat="42.78694" lon="3.02785">
        <ele>0.39999999999998</ele>
        <time>2020-07-14T09:04:25Z</time>
      </trkpt>
      <trkpt lat="42.78693" lon="3.0286">
        <ele>1</ele>
        <time>2020-07-14T09:04:35Z</time>
      </trkpt>
      <trkpt lat="42.78691" lon="3.02938">
        <ele>-0.19999999999999</ele>
        <time>2020-07-14T09:04:46Z</time>
      </trkpt>
      <trkpt lat="42.78687" lon="3.03017">
        <ele>-0.39999999999998</ele>
        <time>2020-07-14T09:04:57Z</time>
      </trkpt>
      <trkpt lat="42.78688" lon="3.03067">
        <ele>-0.39999999999998</ele>
        <time>2020-07-14T09:05:05Z</time>
      </trkpt>
      <trkpt lat="42.78699" lon="3.03143">
        <ele>-0.39999999999998</ele>
        <time>2020-07-14T09:05:17Z</time>
      </trkpt>
      <trkpt lat="42.78708" lon="3.03202">
        <ele>-0.19999999999999</ele>
        <time>2020-07-14T09:05:26Z</time>
      </trkpt>
      <trkpt lat="42.78723" lon="3.03213">
        <ele>0.19999999999999</ele>
        <time>2020-07-14T09:05:30Z</time>
      </trkpt>
      <trkpt lat="42.78726" lon="3.03214">
        <ele>0.19999999999999</ele>
        <time>2020-07-14T09:05:31Z</time>
      </trkpt>
      <trkpt lat="42.78758" lon="3.03221">
        <ele>1.2</ele>
        <time>2020-07-14T09:05:38Z</time>
      </trkpt>
      <trkpt lat="42.78766" lon="3.03257">
        <ele>2.4</ele>
        <time>2020-07-14T09:05:45Z</time>
      </trkpt>
      <trkpt lat="42.78761" lon="3.03301">
        <ele>3.2</ele>
        <time>2020-07-14T09:05:51Z</time>
      </trkpt>
      <trkpt lat="42.78786" lon="3.03321">
        <ele>4.2</ele>
        <time>2020-07-14T09:05:57Z</time>
      </trkpt>
      <trkpt lat="42.78843" lon="3.03328">
        <ele>6.4</ele>
        <time>2020-07-14T09:06:09Z</time>
      </trkpt>
      <trkpt lat="42.78864" lon="3.03332">
        <ele>7.2</ele>
        <time>2020-07-14T09:06:14Z</time>
      </trkpt>
      <trkpt lat="42.78877" lon="3.03356">
        <ele>8.6</ele>
        <time>2020-07-14T09:06:21Z</time>
      </trkpt>
      <trkpt lat="42.78878" lon="3.03377">
        <ele>9.4</ele>
        <time>2020-07-14T09:06:25Z</time>
      </trkpt>
      <trkpt lat="42.78868" lon="3.03408">
        <ele>9.2</ele>
        <time>2020-07-14T09:06:29Z</time>
      </trkpt>
      <trkpt lat="42.78844" lon="3.03456">
        <ele>8.2</ele>
        <time>2020-07-14T09:06:52Z</time>
      </trkpt>
    </trkseg>
  </trk>
</gpx>